<?xml version="1.0" encoding="UTF-8" standalone="no" ?>
<gpx xmlns="http://www.topografix.com/GPX/1/1" xmlns:xsi="http://www.w3.org/2001/XMLSchema-instance" xsi:schemaLocation="http://www.topografix.com/GPX/1/1 http://www.topografix.com/GPX/1/1/gpx.xsd" version="1.1" creator="VisuGPX - https://www.visugpx.com">
  <metadata>
    <name>Tour de la Carrière Barrois de Merlebach</name>
    <desc><![CDATA[File with points/tracks from Locus Map/3.29.2]]></desc>
  </metadata>
  <trk>
    <name><![CDATA[Tour carrière ]]></name>
    <trkseg>
      <trkpt lat="49.16598" lon="6.74828">
        <ele>254.55</ele>
        <time>2018-03-05T12:48:04.000Z</time>
      </trkpt>
      <trkpt lat="49.16603" lon="6.74826">
        <ele>241.14</ele>
        <time>2018-03-05T12:48:14.000Z</time>
      </trkpt>
      <trkpt lat="49.16607" lon="6.74838">
        <ele>241.69</ele>
        <time>2018-03-05T12:48:24.000Z</time>
      </trkpt>
      <trkpt lat="49.16613" lon="6.74847">
        <ele>241.7</ele>
        <time>2018-03-05T12:48:34.000Z</time>
      </trkpt>
      <trkpt lat="49.16619" lon="6.74861">
        <ele>241.33</ele>
        <time>2018-03-05T12:48:44.000Z</time>
      </trkpt>
      <trkpt lat="49.16624" lon="6.74877">
        <ele>240.4</ele>
        <time>2018-03-05T12:48:54.000Z</time>
      </trkpt>
      <trkpt lat="49.16627" lon="6.74899">
        <ele>240.12</ele>
        <time>2018-03-05T12:49:04.000Z</time>
      </trkpt>
      <trkpt lat="49.16621" lon="6.74913">
        <ele>241.61</ele>
        <time>2018-03-05T12:49:14.000Z</time>
      </trkpt>
      <trkpt lat="49.16619" lon="6.7492">
        <ele>242.09</ele>
        <time>2018-03-05T12:49:24.000Z</time>
      </trkpt>
      <trkpt lat="49.16617" lon="6.74935">
        <ele>243.15</ele>
        <time>2018-03-05T12:50:01.000Z</time>
      </trkpt>
      <trkpt lat="49.16617" lon="6.74932">
        <ele>241.4</ele>
        <time>2018-03-05T12:50:11.000Z</time>
      </trkpt>
      <trkpt lat="49.16613" lon="6.74928">
        <ele>235.93</ele>
        <time>2018-03-05T12:50:28.000Z</time>
      </trkpt>
      <trkpt lat="49.16613" lon="6.74915">
        <ele>235.07</ele>
        <time>2018-03-05T12:50:38.000Z</time>
      </trkpt>
      <trkpt lat="49.16608" lon="6.74906">
        <ele>235.79</ele>
        <time>2018-03-05T12:50:48.000Z</time>
      </trkpt>
      <trkpt lat="49.16599" lon="6.74899">
        <ele>236.2</ele>
        <time>2018-03-05T12:50:58.000Z</time>
      </trkpt>
      <trkpt lat="49.16586" lon="6.74895">
        <ele>236.48</ele>
        <time>2018-03-05T12:51:08.000Z</time>
      </trkpt>
      <trkpt lat="49.16575" lon="6.7489">
        <ele>236.68</ele>
        <time>2018-03-05T12:51:18.000Z</time>
      </trkpt>
      <trkpt lat="49.16562" lon="6.74883">
        <ele>236.23</ele>
        <time>2018-03-05T12:51:28.000Z</time>
      </trkpt>
      <trkpt lat="49.1655" lon="6.74877">
        <ele>235.83</ele>
        <time>2018-03-05T12:51:38.000Z</time>
      </trkpt>
      <trkpt lat="49.16537" lon="6.74872">
        <ele>235.03</ele>
        <time>2018-03-05T12:51:48.000Z</time>
      </trkpt>
      <trkpt lat="49.16526" lon="6.74867">
        <ele>234.43</ele>
        <time>2018-03-05T12:51:58.000Z</time>
      </trkpt>
      <trkpt lat="49.16513" lon="6.74866">
        <ele>233.16</ele>
        <time>2018-03-05T12:52:08.000Z</time>
      </trkpt>
      <trkpt lat="49.16499" lon="6.74865">
        <ele>232.14</ele>
        <time>2018-03-05T12:52:18.000Z</time>
      </trkpt>
      <trkpt lat="49.16486" lon="6.74866">
        <ele>230.86</ele>
        <time>2018-03-05T12:52:28.000Z</time>
      </trkpt>
      <trkpt lat="49.16471" lon="6.74866">
        <ele>230.03</ele>
        <time>2018-03-05T12:52:38.000Z</time>
      </trkpt>
      <trkpt lat="49.16458" lon="6.74865">
        <ele>229.23</ele>
        <time>2018-03-05T12:52:48.000Z</time>
      </trkpt>
      <trkpt lat="49.16442" lon="6.74864">
        <ele>228.03</ele>
        <time>2018-03-05T12:52:58.000Z</time>
      </trkpt>
      <trkpt lat="49.16425" lon="6.74863">
        <ele>227.11</ele>
        <time>2018-03-05T12:53:08.000Z</time>
      </trkpt>
      <trkpt lat="49.16409" lon="6.74871">
        <ele>226.18</ele>
        <time>2018-03-05T12:53:18.000Z</time>
      </trkpt>
      <trkpt lat="49.16397" lon="6.74883">
        <ele>225.23</ele>
        <time>2018-03-05T12:53:28.000Z</time>
      </trkpt>
      <trkpt lat="49.16388" lon="6.74897">
        <ele>221.52</ele>
        <time>2018-03-05T12:53:38.000Z</time>
      </trkpt>
      <trkpt lat="49.1638" lon="6.74912">
        <ele>219.63</ele>
        <time>2018-03-05T12:53:48.000Z</time>
      </trkpt>
      <trkpt lat="49.16372" lon="6.74927">
        <ele>219.05</ele>
        <time>2018-03-05T12:53:58.000Z</time>
      </trkpt>
      <trkpt lat="49.16365" lon="6.74944">
        <ele>216.61</ele>
        <time>2018-03-05T12:54:08.000Z</time>
      </trkpt>
      <trkpt lat="49.16357" lon="6.74959">
        <ele>214.2</ele>
        <time>2018-03-05T12:54:18.000Z</time>
      </trkpt>
      <trkpt lat="49.16352" lon="6.74977">
        <ele>210.23</ele>
        <time>2018-03-05T12:54:28.000Z</time>
      </trkpt>
      <trkpt lat="49.16344" lon="6.74998">
        <ele>205.66</ele>
        <time>2018-03-05T12:54:38.000Z</time>
      </trkpt>
      <trkpt lat="49.16339" lon="6.75019">
        <ele>205.14</ele>
        <time>2018-03-05T12:54:48.000Z</time>
      </trkpt>
      <trkpt lat="49.16335" lon="6.75037">
        <ele>205.35</ele>
        <time>2018-03-05T12:54:58.000Z</time>
      </trkpt>
      <trkpt lat="49.16329" lon="6.75055">
        <ele>203.63</ele>
        <time>2018-03-05T12:55:08.000Z</time>
      </trkpt>
      <trkpt lat="49.16323" lon="6.75073">
        <ele>203.51</ele>
        <time>2018-03-05T12:55:18.000Z</time>
      </trkpt>
      <trkpt lat="49.16318" lon="6.75093">
        <ele>203.59</ele>
        <time>2018-03-05T12:55:28.000Z</time>
      </trkpt>
      <trkpt lat="49.16312" lon="6.75112">
        <ele>204.26</ele>
        <time>2018-03-05T12:55:38.000Z</time>
      </trkpt>
      <trkpt lat="49.16307" lon="6.75132">
        <ele>202.18</ele>
        <time>2018-03-05T12:55:48.000Z</time>
      </trkpt>
      <trkpt lat="49.16301" lon="6.75154">
        <ele>204.22</ele>
        <time>2018-03-05T12:55:58.000Z</time>
      </trkpt>
      <trkpt lat="49.16295" lon="6.75183">
        <ele>202.26</ele>
        <time>2018-03-05T12:56:08.000Z</time>
      </trkpt>
      <trkpt lat="49.16289" lon="6.75196">
        <ele>210.48</ele>
        <time>2018-03-05T12:56:18.000Z</time>
      </trkpt>
      <trkpt lat="49.16281" lon="6.75207">
        <ele>212.1</ele>
        <time>2018-03-05T12:56:28.000Z</time>
      </trkpt>
      <trkpt lat="49.16272" lon="6.75223">
        <ele>211.93</ele>
        <time>2018-03-05T12:56:38.000Z</time>
      </trkpt>
      <trkpt lat="49.16261" lon="6.75241">
        <ele>215.24</ele>
        <time>2018-03-05T12:56:48.000Z</time>
      </trkpt>
      <trkpt lat="49.16255" lon="6.75256">
        <ele>215.74</ele>
        <time>2018-03-05T12:56:58.000Z</time>
      </trkpt>
      <trkpt lat="49.16251" lon="6.75274">
        <ele>215.31</ele>
        <time>2018-03-05T12:57:08.000Z</time>
      </trkpt>
      <trkpt lat="49.16248" lon="6.75292">
        <ele>214.42</ele>
        <time>2018-03-05T12:57:18.000Z</time>
      </trkpt>
      <trkpt lat="49.16246" lon="6.75311">
        <ele>212</ele>
        <time>2018-03-05T12:57:28.000Z</time>
      </trkpt>
      <trkpt lat="49.16241" lon="6.7533">
        <ele>206.41</ele>
        <time>2018-03-05T12:57:38.000Z</time>
      </trkpt>
      <trkpt lat="49.16235" lon="6.75346">
        <ele>205.25</ele>
        <time>2018-03-05T12:57:48.000Z</time>
      </trkpt>
      <trkpt lat="49.16229" lon="6.75369">
        <ele>203.84</ele>
        <time>2018-03-05T12:57:58.000Z</time>
      </trkpt>
      <trkpt lat="49.16223" lon="6.75387">
        <ele>203.9</ele>
        <time>2018-03-05T12:58:08.000Z</time>
      </trkpt>
      <trkpt lat="49.16218" lon="6.75401">
        <ele>205.31</ele>
        <time>2018-03-05T12:58:18.000Z</time>
      </trkpt>
      <trkpt lat="49.1621" lon="6.75416">
        <ele>205.19</ele>
        <time>2018-03-05T12:58:28.000Z</time>
      </trkpt>
      <trkpt lat="49.162" lon="6.7543">
        <ele>208.66</ele>
        <time>2018-03-05T12:58:38.000Z</time>
      </trkpt>
      <trkpt lat="49.16195" lon="6.75435">
        <ele>210.14</ele>
        <time>2018-03-05T12:58:48.000Z</time>
      </trkpt>
      <trkpt lat="49.16192" lon="6.7544">
        <ele>214.09</ele>
        <time>2018-03-05T12:58:58.000Z</time>
      </trkpt>
      <trkpt lat="49.16189" lon="6.75451">
        <ele>213.57</ele>
        <time>2018-03-05T12:59:11.000Z</time>
      </trkpt>
      <trkpt lat="49.16184" lon="6.75442">
        <ele>211.33</ele>
        <time>2018-03-05T12:59:21.000Z</time>
      </trkpt>
      <trkpt lat="49.16176" lon="6.75435">
        <ele>210.49</ele>
        <time>2018-03-05T12:59:31.000Z</time>
      </trkpt>
      <trkpt lat="49.16167" lon="6.75427">
        <ele>210.7</ele>
        <time>2018-03-05T12:59:41.000Z</time>
      </trkpt>
      <trkpt lat="49.16152" lon="6.75421">
        <ele>212.3</ele>
        <time>2018-03-05T12:59:51.000Z</time>
      </trkpt>
      <trkpt lat="49.1614" lon="6.75416">
        <ele>209.43</ele>
        <time>2018-03-05T13:00:01.000Z</time>
      </trkpt>
      <trkpt lat="49.16128" lon="6.75412">
        <ele>209.17</ele>
        <time>2018-03-05T13:00:11.000Z</time>
      </trkpt>
      <trkpt lat="49.16114" lon="6.75407">
        <ele>208.23</ele>
        <time>2018-03-05T13:00:21.000Z</time>
      </trkpt>
      <trkpt lat="49.161" lon="6.75406">
        <ele>207.64</ele>
        <time>2018-03-05T13:00:31.000Z</time>
      </trkpt>
      <trkpt lat="49.16087" lon="6.75404">
        <ele>207.85</ele>
        <time>2018-03-05T13:00:41.000Z</time>
      </trkpt>
      <trkpt lat="49.16074" lon="6.75403">
        <ele>209</ele>
        <time>2018-03-05T13:00:51.000Z</time>
      </trkpt>
      <trkpt lat="49.1606" lon="6.75405">
        <ele>207.69</ele>
        <time>2018-03-05T13:01:01.000Z</time>
      </trkpt>
      <trkpt lat="49.16049" lon="6.75402">
        <ele>207.15</ele>
        <time>2018-03-05T13:01:11.000Z</time>
      </trkpt>
      <trkpt lat="49.16035" lon="6.754">
        <ele>203.58</ele>
        <time>2018-03-05T13:01:21.000Z</time>
      </trkpt>
      <trkpt lat="49.16021" lon="6.75396">
        <ele>201.46</ele>
        <time>2018-03-05T13:01:31.000Z</time>
      </trkpt>
      <trkpt lat="49.16004" lon="6.75391">
        <ele>201.06</ele>
        <time>2018-03-05T13:01:41.000Z</time>
      </trkpt>
      <trkpt lat="49.1599" lon="6.75386">
        <ele>202.39</ele>
        <time>2018-03-05T13:01:51.000Z</time>
      </trkpt>
      <trkpt lat="49.15978" lon="6.75386">
        <ele>200.59</ele>
        <time>2018-03-05T13:02:01.000Z</time>
      </trkpt>
      <trkpt lat="49.15963" lon="6.75388">
        <ele>199.69</ele>
        <time>2018-03-05T13:02:11.000Z</time>
      </trkpt>
      <trkpt lat="49.15949" lon="6.75391">
        <ele>200.26</ele>
        <time>2018-03-05T13:02:21.000Z</time>
      </trkpt>
      <trkpt lat="49.15935" lon="6.75397">
        <ele>203.68</ele>
        <time>2018-03-05T13:02:31.000Z</time>
      </trkpt>
      <trkpt lat="49.15924" lon="6.75405">
        <ele>203.23</ele>
        <time>2018-03-05T13:02:41.000Z</time>
      </trkpt>
      <trkpt lat="49.1591" lon="6.75417">
        <ele>200.04</ele>
        <time>2018-03-05T13:02:51.000Z</time>
      </trkpt>
      <trkpt lat="49.159" lon="6.7543">
        <ele>198.88</ele>
        <time>2018-03-05T13:03:01.000Z</time>
      </trkpt>
      <trkpt lat="49.15892" lon="6.75444">
        <ele>194.62</ele>
        <time>2018-03-05T13:03:11.000Z</time>
      </trkpt>
      <trkpt lat="49.15885" lon="6.75466">
        <ele>188.52</ele>
        <time>2018-03-05T13:03:21.000Z</time>
      </trkpt>
      <trkpt lat="49.15882" lon="6.75484">
        <ele>186.73</ele>
        <time>2018-03-05T13:03:31.000Z</time>
      </trkpt>
      <trkpt lat="49.15879" lon="6.755">
        <ele>189.67</ele>
        <time>2018-03-05T13:03:41.000Z</time>
      </trkpt>
      <trkpt lat="49.15878" lon="6.75518">
        <ele>187.56</ele>
        <time>2018-03-05T13:03:51.000Z</time>
      </trkpt>
      <trkpt lat="49.15878" lon="6.75537">
        <ele>183.36</ele>
        <time>2018-03-05T13:04:01.000Z</time>
      </trkpt>
      <trkpt lat="49.15879" lon="6.75555">
        <ele>180.7</ele>
        <time>2018-03-05T13:04:11.000Z</time>
      </trkpt>
      <trkpt lat="49.15882" lon="6.75575">
        <ele>178.78</ele>
        <time>2018-03-05T13:04:21.000Z</time>
      </trkpt>
      <trkpt lat="49.15886" lon="6.75594">
        <ele>179.15</ele>
        <time>2018-03-05T13:04:31.000Z</time>
      </trkpt>
      <trkpt lat="49.15888" lon="6.75612">
        <ele>174.39</ele>
        <time>2018-03-05T13:04:41.000Z</time>
      </trkpt>
      <trkpt lat="49.15892" lon="6.75634">
        <ele>169.81</ele>
        <time>2018-03-05T13:04:51.000Z</time>
      </trkpt>
      <trkpt lat="49.15893" lon="6.75654">
        <ele>165.15</ele>
        <time>2018-03-05T13:05:01.000Z</time>
      </trkpt>
      <trkpt lat="49.15895" lon="6.75669">
        <ele>159.9</ele>
        <time>2018-03-05T13:05:11.000Z</time>
      </trkpt>
      <trkpt lat="49.15901" lon="6.75688">
        <ele>161.26</ele>
        <time>2018-03-05T13:05:21.000Z</time>
      </trkpt>
      <trkpt lat="49.15903" lon="6.75709">
        <ele>158.22</ele>
        <time>2018-03-05T13:05:31.000Z</time>
      </trkpt>
      <trkpt lat="49.15908" lon="6.75731">
        <ele>160.36</ele>
        <time>2018-03-05T13:05:41.000Z</time>
      </trkpt>
      <trkpt lat="49.15912" lon="6.75752">
        <ele>162.01</ele>
        <time>2018-03-05T13:05:51.000Z</time>
      </trkpt>
      <trkpt lat="49.15916" lon="6.75772">
        <ele>162.93</ele>
        <time>2018-03-05T13:06:01.000Z</time>
      </trkpt>
      <trkpt lat="49.15916" lon="6.7579">
        <ele>156.26</ele>
        <time>2018-03-05T13:06:11.000Z</time>
      </trkpt>
      <trkpt lat="49.1592" lon="6.75808">
        <ele>155.15</ele>
        <time>2018-03-05T13:06:21.000Z</time>
      </trkpt>
      <trkpt lat="49.15923" lon="6.75826">
        <ele>154.66</ele>
        <time>2018-03-05T13:06:31.000Z</time>
      </trkpt>
      <trkpt lat="49.15928" lon="6.75847">
        <ele>154.6</ele>
        <time>2018-03-05T13:06:41.000Z</time>
      </trkpt>
      <trkpt lat="49.15931" lon="6.75872">
        <ele>155.18</ele>
        <time>2018-03-05T13:06:51.000Z</time>
      </trkpt>
      <trkpt lat="49.15936" lon="6.75895">
        <ele>161.65</ele>
        <time>2018-03-05T13:07:01.000Z</time>
      </trkpt>
      <trkpt lat="49.15934" lon="6.75917">
        <ele>166.42</ele>
        <time>2018-03-05T13:07:11.000Z</time>
      </trkpt>
      <trkpt lat="49.15931" lon="6.75935">
        <ele>167.68</ele>
        <time>2018-03-05T13:07:21.000Z</time>
      </trkpt>
      <trkpt lat="49.15929" lon="6.75956">
        <ele>171.05</ele>
        <time>2018-03-05T13:07:31.000Z</time>
      </trkpt>
      <trkpt lat="49.15929" lon="6.75978">
        <ele>174.36</ele>
        <time>2018-03-05T13:07:41.000Z</time>
      </trkpt>
      <trkpt lat="49.15928" lon="6.75997">
        <ele>175.98</ele>
        <time>2018-03-05T13:07:51.000Z</time>
      </trkpt>
      <trkpt lat="49.15929" lon="6.76015">
        <ele>173.68</ele>
        <time>2018-03-05T13:08:01.000Z</time>
      </trkpt>
      <trkpt lat="49.15929" lon="6.76033">
        <ele>168.43</ele>
        <time>2018-03-05T13:08:11.000Z</time>
      </trkpt>
      <trkpt lat="49.15934" lon="6.76054">
        <ele>167.95</ele>
        <time>2018-03-05T13:08:21.000Z</time>
      </trkpt>
      <trkpt lat="49.15935" lon="6.76076">
        <ele>164.32</ele>
        <time>2018-03-05T13:08:31.000Z</time>
      </trkpt>
      <trkpt lat="49.15933" lon="6.76096">
        <ele>159.44</ele>
        <time>2018-03-05T13:08:41.000Z</time>
      </trkpt>
      <trkpt lat="49.15936" lon="6.76114">
        <ele>151.64</ele>
        <time>2018-03-05T13:08:51.000Z</time>
      </trkpt>
      <trkpt lat="49.15939" lon="6.76135">
        <ele>155.3</ele>
        <time>2018-03-05T13:09:01.000Z</time>
      </trkpt>
      <trkpt lat="49.15944" lon="6.76155">
        <ele>159.98</ele>
        <time>2018-03-05T13:09:11.000Z</time>
      </trkpt>
      <trkpt lat="49.15947" lon="6.76171">
        <ele>168.03</ele>
        <time>2018-03-05T13:09:21.000Z</time>
      </trkpt>
      <trkpt lat="49.15945" lon="6.76181">
        <ele>165.7</ele>
        <time>2018-03-05T13:09:31.000Z</time>
      </trkpt>
      <trkpt lat="49.1595" lon="6.76192">
        <ele>165.61</ele>
        <time>2018-03-05T13:09:41.000Z</time>
      </trkpt>
      <trkpt lat="49.15954" lon="6.76203">
        <ele>168.28</ele>
        <time>2018-03-05T13:09:51.000Z</time>
      </trkpt>
      <trkpt lat="49.15958" lon="6.76216">
        <ele>160.7</ele>
        <time>2018-03-05T13:10:01.000Z</time>
      </trkpt>
      <trkpt lat="49.15966" lon="6.76237">
        <ele>160.5</ele>
        <time>2018-03-05T13:10:11.000Z</time>
      </trkpt>
      <trkpt lat="49.15969" lon="6.76254">
        <ele>162.64</ele>
        <time>2018-03-05T13:10:21.000Z</time>
      </trkpt>
      <trkpt lat="49.15972" lon="6.76273">
        <ele>170.12</ele>
        <time>2018-03-05T13:10:31.000Z</time>
      </trkpt>
      <trkpt lat="49.15977" lon="6.76289">
        <ele>180.27</ele>
        <time>2018-03-05T13:10:41.000Z</time>
      </trkpt>
      <trkpt lat="49.15981" lon="6.76306">
        <ele>183.09</ele>
        <time>2018-03-05T13:10:51.000Z</time>
      </trkpt>
      <trkpt lat="49.15978" lon="6.7633">
        <ele>182.02</ele>
        <time>2018-03-05T13:11:01.000Z</time>
      </trkpt>
      <trkpt lat="49.15979" lon="6.76348">
        <ele>181.49</ele>
        <time>2018-03-05T13:11:11.000Z</time>
      </trkpt>
      <trkpt lat="49.15979" lon="6.76368">
        <ele>177.75</ele>
        <time>2018-03-05T13:11:21.000Z</time>
      </trkpt>
      <trkpt lat="49.15981" lon="6.76387">
        <ele>174.81</ele>
        <time>2018-03-05T13:11:31.000Z</time>
      </trkpt>
      <trkpt lat="49.15983" lon="6.76408">
        <ele>174.42</ele>
        <time>2018-03-05T13:11:41.000Z</time>
      </trkpt>
      <trkpt lat="49.15983" lon="6.76431">
        <ele>176.93</ele>
        <time>2018-03-05T13:11:51.000Z</time>
      </trkpt>
      <trkpt lat="49.15986" lon="6.76451">
        <ele>183.98</ele>
        <time>2018-03-05T13:12:01.000Z</time>
      </trkpt>
      <trkpt lat="49.15987" lon="6.76464">
        <ele>183.24</ele>
        <time>2018-03-05T13:12:11.000Z</time>
      </trkpt>
      <trkpt lat="49.15983" lon="6.76481">
        <ele>174.24</ele>
        <time>2018-03-05T13:12:21.000Z</time>
      </trkpt>
      <trkpt lat="49.15981" lon="6.76495">
        <ele>163.93</ele>
        <time>2018-03-05T13:12:31.000Z</time>
      </trkpt>
      <trkpt lat="49.1598" lon="6.76514">
        <ele>156.54</ele>
        <time>2018-03-05T13:12:41.000Z</time>
      </trkpt>
      <trkpt lat="49.15985" lon="6.76538">
        <ele>166.42</ele>
        <time>2018-03-05T13:12:51.000Z</time>
      </trkpt>
      <trkpt lat="49.15986" lon="6.76557">
        <ele>167.66</ele>
        <time>2018-03-05T13:13:01.000Z</time>
      </trkpt>
      <trkpt lat="49.15989" lon="6.76583">
        <ele>179.84</ele>
        <time>2018-03-05T13:13:11.000Z</time>
      </trkpt>
      <trkpt lat="49.15988" lon="6.76604">
        <ele>188.62</ele>
        <time>2018-03-05T13:13:21.000Z</time>
      </trkpt>
      <trkpt lat="49.15987" lon="6.76621">
        <ele>192.26</ele>
        <time>2018-03-05T13:13:31.000Z</time>
      </trkpt>
      <trkpt lat="49.15988" lon="6.76642">
        <ele>192.94</ele>
        <time>2018-03-05T13:13:41.000Z</time>
      </trkpt>
      <trkpt lat="49.1599" lon="6.76661">
        <ele>193.45</ele>
        <time>2018-03-05T13:13:51.000Z</time>
      </trkpt>
      <trkpt lat="49.15989" lon="6.76681">
        <ele>189.86</ele>
        <time>2018-03-05T13:14:01.000Z</time>
      </trkpt>
      <trkpt lat="49.15988" lon="6.76705">
        <ele>191.62</ele>
        <time>2018-03-05T13:14:11.000Z</time>
      </trkpt>
      <trkpt lat="49.1599" lon="6.76722">
        <ele>194.56</ele>
        <time>2018-03-05T13:14:21.000Z</time>
      </trkpt>
      <trkpt lat="49.1599" lon="6.76741">
        <ele>194.62</ele>
        <time>2018-03-05T13:14:31.000Z</time>
      </trkpt>
      <trkpt lat="49.15991" lon="6.76765">
        <ele>194.1</ele>
        <time>2018-03-05T13:14:41.000Z</time>
      </trkpt>
      <trkpt lat="49.15994" lon="6.76786">
        <ele>189.43</ele>
        <time>2018-03-05T13:14:51.000Z</time>
      </trkpt>
      <trkpt lat="49.15996" lon="6.768">
        <ele>183</ele>
        <time>2018-03-05T13:15:01.000Z</time>
      </trkpt>
      <trkpt lat="49.16002" lon="6.76813">
        <ele>178.58</ele>
        <time>2018-03-05T13:15:11.000Z</time>
      </trkpt>
      <trkpt lat="49.16011" lon="6.76821">
        <ele>171.91</ele>
        <time>2018-03-05T13:15:21.000Z</time>
      </trkpt>
      <trkpt lat="49.16019" lon="6.76835">
        <ele>168.47</ele>
        <time>2018-03-05T13:15:31.000Z</time>
      </trkpt>
      <trkpt lat="49.16025" lon="6.76848">
        <ele>167.75</ele>
        <time>2018-03-05T13:15:41.000Z</time>
      </trkpt>
      <trkpt lat="49.16037" lon="6.76867">
        <ele>178.95</ele>
        <time>2018-03-05T13:15:51.000Z</time>
      </trkpt>
      <trkpt lat="49.16046" lon="6.76882">
        <ele>183.28</ele>
        <time>2018-03-05T13:16:01.000Z</time>
      </trkpt>
      <trkpt lat="49.16053" lon="6.76896">
        <ele>186.32</ele>
        <time>2018-03-05T13:16:11.000Z</time>
      </trkpt>
      <trkpt lat="49.16063" lon="6.76909">
        <ele>185.64</ele>
        <time>2018-03-05T13:16:21.000Z</time>
      </trkpt>
      <trkpt lat="49.16073" lon="6.76919">
        <ele>184.08</ele>
        <time>2018-03-05T13:16:31.000Z</time>
      </trkpt>
      <trkpt lat="49.16085" lon="6.76929">
        <ele>184.39</ele>
        <time>2018-03-05T13:16:41.000Z</time>
      </trkpt>
      <trkpt lat="49.16095" lon="6.7694">
        <ele>180.28</ele>
        <time>2018-03-05T13:16:51.000Z</time>
      </trkpt>
      <trkpt lat="49.16106" lon="6.7695">
        <ele>181.44</ele>
        <time>2018-03-05T13:17:01.000Z</time>
      </trkpt>
      <trkpt lat="49.16122" lon="6.76961">
        <ele>183.11</ele>
        <time>2018-03-05T13:17:11.000Z</time>
      </trkpt>
      <trkpt lat="49.16132" lon="6.76974">
        <ele>179.93</ele>
        <time>2018-03-05T13:17:21.000Z</time>
      </trkpt>
      <trkpt lat="49.16143" lon="6.76982">
        <ele>177.52</ele>
        <time>2018-03-05T13:17:31.000Z</time>
      </trkpt>
      <trkpt lat="49.16148" lon="6.76988">
        <ele>172.53</ele>
        <time>2018-03-05T13:17:41.000Z</time>
      </trkpt>
      <trkpt lat="49.16153" lon="6.76991">
        <ele>165.07</ele>
        <time>2018-03-05T13:17:51.000Z</time>
      </trkpt>
      <trkpt lat="49.16162" lon="6.76996">
        <ele>150.1</ele>
        <time>2018-03-05T13:18:01.000Z</time>
      </trkpt>
      <trkpt lat="49.16168" lon="6.77001">
        <ele>145.37</ele>
        <time>2018-03-05T13:18:11.000Z</time>
      </trkpt>
      <trkpt lat="49.16171" lon="6.77012">
        <ele>134.62</ele>
        <time>2018-03-05T13:18:21.000Z</time>
      </trkpt>
      <trkpt lat="49.16183" lon="6.7702">
        <ele>129.71</ele>
        <time>2018-03-05T13:18:31.000Z</time>
      </trkpt>
      <trkpt lat="49.16196" lon="6.77027">
        <ele>120.38</ele>
        <time>2018-03-05T13:18:41.000Z</time>
      </trkpt>
      <trkpt lat="49.16218" lon="6.77034">
        <ele>117.2</ele>
        <time>2018-03-05T13:18:51.000Z</time>
      </trkpt>
      <trkpt lat="49.16233" lon="6.77043">
        <ele>115.4</ele>
        <time>2018-03-05T13:19:01.000Z</time>
      </trkpt>
      <trkpt lat="49.16246" lon="6.77053">
        <ele>112.18</ele>
        <time>2018-03-05T13:19:11.000Z</time>
      </trkpt>
      <trkpt lat="49.16251" lon="6.77057">
        <ele>104.89</ele>
        <time>2018-03-05T13:19:21.000Z</time>
      </trkpt>
      <trkpt lat="49.16258" lon="6.77063">
        <ele>92.64</ele>
        <time>2018-03-05T13:19:32.000Z</time>
      </trkpt>
      <trkpt lat="49.16261" lon="6.77066">
        <ele>89.57</ele>
        <time>2018-03-05T13:19:42.000Z</time>
      </trkpt>
      <trkpt lat="49.16287" lon="6.77078">
        <ele>77.76</ele>
        <time>2018-03-05T13:19:52.000Z</time>
      </trkpt>
      <trkpt lat="49.16309" lon="6.77103">
        <ele>104.48</ele>
        <time>2018-03-05T13:20:02.000Z</time>
      </trkpt>
      <trkpt lat="49.16327" lon="6.77124">
        <ele>127.76</ele>
        <time>2018-03-05T13:20:12.000Z</time>
      </trkpt>
      <trkpt lat="49.16346" lon="6.77148">
        <ele>154.79</ele>
        <time>2018-03-05T13:20:22.000Z</time>
      </trkpt>
      <trkpt lat="49.16357" lon="6.7716">
        <ele>166.58</ele>
        <time>2018-03-05T13:20:32.000Z</time>
      </trkpt>
      <trkpt lat="49.1637" lon="6.77175">
        <ele>173.78</ele>
        <time>2018-03-05T13:20:42.000Z</time>
      </trkpt>
      <trkpt lat="49.16385" lon="6.77191">
        <ele>175.25</ele>
        <time>2018-03-05T13:20:52.000Z</time>
      </trkpt>
      <trkpt lat="49.16394" lon="6.77196">
        <ele>179.56</ele>
        <time>2018-03-05T13:21:02.000Z</time>
      </trkpt>
      <trkpt lat="49.16406" lon="6.77209">
        <ele>180.35</ele>
        <time>2018-03-05T13:21:12.000Z</time>
      </trkpt>
      <trkpt lat="49.16417" lon="6.77218">
        <ele>180.09</ele>
        <time>2018-03-05T13:21:22.000Z</time>
      </trkpt>
      <trkpt lat="49.1643" lon="6.77225">
        <ele>183.21</ele>
        <time>2018-03-05T13:21:32.000Z</time>
      </trkpt>
      <trkpt lat="49.16444" lon="6.7723">
        <ele>183.64</ele>
        <time>2018-03-05T13:21:42.000Z</time>
      </trkpt>
      <trkpt lat="49.1646" lon="6.77237">
        <ele>179.63</ele>
        <time>2018-03-05T13:21:52.000Z</time>
      </trkpt>
      <trkpt lat="49.16478" lon="6.77247">
        <ele>178.86</ele>
        <time>2018-03-05T13:22:02.000Z</time>
      </trkpt>
      <trkpt lat="49.16485" lon="6.77255">
        <ele>176.01</ele>
        <time>2018-03-05T13:22:12.000Z</time>
      </trkpt>
      <trkpt lat="49.16494" lon="6.77267">
        <ele>172.92</ele>
        <time>2018-03-05T13:22:22.000Z</time>
      </trkpt>
      <trkpt lat="49.16501" lon="6.77279">
        <ele>167.47</ele>
        <time>2018-03-05T13:22:32.000Z</time>
      </trkpt>
      <trkpt lat="49.16508" lon="6.7729">
        <ele>163.42</ele>
        <time>2018-03-05T13:22:42.000Z</time>
      </trkpt>
      <trkpt lat="49.16517" lon="6.77306">
        <ele>163.84</ele>
        <time>2018-03-05T13:22:52.000Z</time>
      </trkpt>
      <trkpt lat="49.16524" lon="6.77322">
        <ele>164.42</ele>
        <time>2018-03-05T13:23:02.000Z</time>
      </trkpt>
      <trkpt lat="49.16529" lon="6.77338">
        <ele>160.38</ele>
        <time>2018-03-05T13:23:12.000Z</time>
      </trkpt>
      <trkpt lat="49.16539" lon="6.77358">
        <ele>160.8</ele>
        <time>2018-03-05T13:23:22.000Z</time>
      </trkpt>
      <trkpt lat="49.16541" lon="6.77364">
        <ele>162.16</ele>
        <time>2018-03-05T13:23:32.000Z</time>
      </trkpt>
      <trkpt lat="49.16552" lon="6.77373">
        <ele>175.67</ele>
        <time>2018-03-05T13:23:42.000Z</time>
      </trkpt>
      <trkpt lat="49.16552" lon="6.77374">
        <ele>176.26</ele>
        <time>2018-03-05T13:23:52.000Z</time>
      </trkpt>
      <trkpt lat="49.16563" lon="6.77382">
        <ele>176.87</ele>
        <time>2018-03-05T13:24:02.000Z</time>
      </trkpt>
      <trkpt lat="49.16567" lon="6.77391">
        <ele>175.97</ele>
        <time>2018-03-05T13:24:12.000Z</time>
      </trkpt>
      <trkpt lat="49.16568" lon="6.77408">
        <ele>175.88</ele>
        <time>2018-03-05T13:24:22.000Z</time>
      </trkpt>
      <trkpt lat="49.16567" lon="6.77425">
        <ele>173.66</ele>
        <time>2018-03-05T13:24:32.000Z</time>
      </trkpt>
      <trkpt lat="49.16569" lon="6.77442">
        <ele>175.19</ele>
        <time>2018-03-05T13:24:42.000Z</time>
      </trkpt>
      <trkpt lat="49.16569" lon="6.77457">
        <ele>168.67</ele>
        <time>2018-03-05T13:24:52.000Z</time>
      </trkpt>
      <trkpt lat="49.16577" lon="6.77478">
        <ele>172.37</ele>
        <time>2018-03-05T13:25:02.000Z</time>
      </trkpt>
      <trkpt lat="49.16583" lon="6.77497">
        <ele>172.67</ele>
        <time>2018-03-05T13:25:12.000Z</time>
      </trkpt>
      <trkpt lat="49.16591" lon="6.77515">
        <ele>175.28</ele>
        <time>2018-03-05T13:25:22.000Z</time>
      </trkpt>
      <trkpt lat="49.16597" lon="6.77529">
        <ele>174.9</ele>
        <time>2018-03-05T13:25:32.000Z</time>
      </trkpt>
      <trkpt lat="49.16606" lon="6.77536">
        <ele>177.52</ele>
        <time>2018-03-05T13:25:42.000Z</time>
      </trkpt>
      <trkpt lat="49.16608" lon="6.77539">
        <ele>178.17</ele>
        <time>2018-03-05T13:25:52.000Z</time>
      </trkpt>
      <trkpt lat="49.16605" lon="6.77551">
        <ele>179.38</ele>
        <time>2018-03-05T13:26:02.000Z</time>
      </trkpt>
      <trkpt lat="49.16605" lon="6.77552">
        <ele>180.16</ele>
        <time>2018-03-05T13:26:12.000Z</time>
      </trkpt>
      <trkpt lat="49.16599" lon="6.77557">
        <ele>181.16</ele>
        <time>2018-03-05T13:26:22.000Z</time>
      </trkpt>
      <trkpt lat="49.166" lon="6.77556">
        <ele>183.31</ele>
        <time>2018-03-05T13:27:29.000Z</time>
      </trkpt>
      <trkpt lat="49.1661" lon="6.77553">
        <ele>180.5</ele>
        <time>2018-03-05T13:27:39.000Z</time>
      </trkpt>
      <trkpt lat="49.16621" lon="6.77549">
        <ele>177.06</ele>
        <time>2018-03-05T13:27:49.000Z</time>
      </trkpt>
      <trkpt lat="49.16632" lon="6.77554">
        <ele>174.81</ele>
        <time>2018-03-05T13:27:59.000Z</time>
      </trkpt>
      <trkpt lat="49.16642" lon="6.77568">
        <ele>169.11</ele>
        <time>2018-03-05T13:28:09.000Z</time>
      </trkpt>
      <trkpt lat="49.16645" lon="6.77584">
        <ele>168.23</ele>
        <time>2018-03-05T13:28:19.000Z</time>
      </trkpt>
      <trkpt lat="49.16652" lon="6.77598">
        <ele>166.12</ele>
        <time>2018-03-05T13:28:29.000Z</time>
      </trkpt>
      <trkpt lat="49.16659" lon="6.77609">
        <ele>165.46</ele>
        <time>2018-03-05T13:28:39.000Z</time>
      </trkpt>
      <trkpt lat="49.16662" lon="6.7761">
        <ele>166.86</ele>
        <time>2018-03-05T13:28:49.000Z</time>
      </trkpt>
      <trkpt lat="49.16672" lon="6.7762">
        <ele>167.52</ele>
        <time>2018-03-05T13:28:59.000Z</time>
      </trkpt>
      <trkpt lat="49.16683" lon="6.77629">
        <ele>168.61</ele>
        <time>2018-03-05T13:29:09.000Z</time>
      </trkpt>
      <trkpt lat="49.16695" lon="6.77629">
        <ele>167.7</ele>
        <time>2018-03-05T13:29:19.000Z</time>
      </trkpt>
      <trkpt lat="49.16706" lon="6.77625">
        <ele>165.47</ele>
        <time>2018-03-05T13:29:29.000Z</time>
      </trkpt>
      <trkpt lat="49.16715" lon="6.77633">
        <ele>166.01</ele>
        <time>2018-03-05T13:29:39.000Z</time>
      </trkpt>
      <trkpt lat="49.16721" lon="6.7765">
        <ele>163.62</ele>
        <time>2018-03-05T13:29:49.000Z</time>
      </trkpt>
      <trkpt lat="49.16725" lon="6.7767">
        <ele>156.34</ele>
        <time>2018-03-05T13:29:59.000Z</time>
      </trkpt>
      <trkpt lat="49.16724" lon="6.7769">
        <ele>154.27</ele>
        <time>2018-03-05T13:30:09.000Z</time>
      </trkpt>
      <trkpt lat="49.16711" lon="6.77705">
        <ele>166</ele>
        <time>2018-03-05T13:30:19.000Z</time>
      </trkpt>
      <trkpt lat="49.16696" lon="6.77701">
        <ele>168.52</ele>
        <time>2018-03-05T13:30:29.000Z</time>
      </trkpt>
      <trkpt lat="49.16682" lon="6.77695">
        <ele>171.04</ele>
        <time>2018-03-05T13:30:39.000Z</time>
      </trkpt>
      <trkpt lat="49.16669" lon="6.77687">
        <ele>168.25</ele>
        <time>2018-03-05T13:30:49.000Z</time>
      </trkpt>
      <trkpt lat="49.16655" lon="6.77681">
        <ele>164.1</ele>
        <time>2018-03-05T13:30:59.000Z</time>
      </trkpt>
      <trkpt lat="49.16645" lon="6.7769">
        <ele>161.52</ele>
        <time>2018-03-05T13:31:09.000Z</time>
      </trkpt>
      <trkpt lat="49.16636" lon="6.77695">
        <ele>158.69</ele>
        <time>2018-03-05T13:31:19.000Z</time>
      </trkpt>
      <trkpt lat="49.16629" lon="6.77703">
        <ele>159.66</ele>
        <time>2018-03-05T13:31:29.000Z</time>
      </trkpt>
      <trkpt lat="49.1662" lon="6.77714">
        <ele>162.53</ele>
        <time>2018-03-05T13:31:39.000Z</time>
      </trkpt>
      <trkpt lat="49.16609" lon="6.77727">
        <ele>162.46</ele>
        <time>2018-03-05T13:31:49.000Z</time>
      </trkpt>
      <trkpt lat="49.16597" lon="6.7774">
        <ele>162.22</ele>
        <time>2018-03-05T13:31:59.000Z</time>
      </trkpt>
      <trkpt lat="49.16587" lon="6.77754">
        <ele>161.58</ele>
        <time>2018-03-05T13:32:09.000Z</time>
      </trkpt>
      <trkpt lat="49.16579" lon="6.77764">
        <ele>159.37</ele>
        <time>2018-03-05T13:32:19.000Z</time>
      </trkpt>
      <trkpt lat="49.16571" lon="6.77774">
        <ele>160.68</ele>
        <time>2018-03-05T13:32:29.000Z</time>
      </trkpt>
      <trkpt lat="49.16565" lon="6.77783">
        <ele>160.44</ele>
        <time>2018-03-05T13:32:39.000Z</time>
      </trkpt>
      <trkpt lat="49.16564" lon="6.77797">
        <ele>163.63</ele>
        <time>2018-03-05T13:32:49.000Z</time>
      </trkpt>
      <trkpt lat="49.16566" lon="6.77802">
        <ele>161.96</ele>
        <time>2018-03-05T13:32:59.000Z</time>
      </trkpt>
      <trkpt lat="49.16566" lon="6.77806">
        <ele>158.28</ele>
        <time>2018-03-05T13:33:32.000Z</time>
      </trkpt>
      <trkpt lat="49.16561" lon="6.77806">
        <ele>157.38</ele>
        <time>2018-03-05T13:33:42.000Z</time>
      </trkpt>
      <trkpt lat="49.16561" lon="6.77811">
        <ele>157.36</ele>
        <time>2018-03-05T13:33:52.000Z</time>
      </trkpt>
      <trkpt lat="49.16561" lon="6.77814">
        <ele>156.96</ele>
        <time>2018-03-05T13:34:02.000Z</time>
      </trkpt>
      <trkpt lat="49.16559" lon="6.77817">
        <ele>156.88</ele>
        <time>2018-03-05T13:34:22.000Z</time>
      </trkpt>
      <trkpt lat="49.16551" lon="6.77829">
        <ele>156.07</ele>
        <time>2018-03-05T13:34:32.000Z</time>
      </trkpt>
      <trkpt lat="49.16544" lon="6.77842">
        <ele>155.54</ele>
        <time>2018-03-05T13:34:42.000Z</time>
      </trkpt>
      <trkpt lat="49.16537" lon="6.77855">
        <ele>152.14</ele>
        <time>2018-03-05T13:34:52.000Z</time>
      </trkpt>
      <trkpt lat="49.16532" lon="6.7787">
        <ele>147.88</ele>
        <time>2018-03-05T13:35:02.000Z</time>
      </trkpt>
      <trkpt lat="49.16526" lon="6.77888">
        <ele>146.81</ele>
        <time>2018-03-05T13:35:12.000Z</time>
      </trkpt>
      <trkpt lat="49.16521" lon="6.77906">
        <ele>147.6</ele>
        <time>2018-03-05T13:35:22.000Z</time>
      </trkpt>
      <trkpt lat="49.16514" lon="6.77921">
        <ele>151.81</ele>
        <time>2018-03-05T13:35:32.000Z</time>
      </trkpt>
      <trkpt lat="49.16509" lon="6.77935">
        <ele>149.19</ele>
        <time>2018-03-05T13:35:42.000Z</time>
      </trkpt>
      <trkpt lat="49.16501" lon="6.77953">
        <ele>150.91</ele>
        <time>2018-03-05T13:35:52.000Z</time>
      </trkpt>
      <trkpt lat="49.1649" lon="6.77972">
        <ele>154.08</ele>
        <time>2018-03-05T13:36:02.000Z</time>
      </trkpt>
      <trkpt lat="49.16482" lon="6.77992">
        <ele>154.52</ele>
        <time>2018-03-05T13:36:12.000Z</time>
      </trkpt>
      <trkpt lat="49.16475" lon="6.7801">
        <ele>153.87</ele>
        <time>2018-03-05T13:36:22.000Z</time>
      </trkpt>
      <trkpt lat="49.16466" lon="6.78027">
        <ele>152.95</ele>
        <time>2018-03-05T13:36:32.000Z</time>
      </trkpt>
      <trkpt lat="49.16464" lon="6.78037">
        <ele>153.06</ele>
        <time>2018-03-05T13:36:42.000Z</time>
      </trkpt>
      <trkpt lat="49.16463" lon="6.78038">
        <ele>154.03</ele>
        <time>2018-03-05T13:37:11.000Z</time>
      </trkpt>
      <trkpt lat="49.16456" lon="6.78051">
        <ele>155.09</ele>
        <time>2018-03-05T13:37:21.000Z</time>
      </trkpt>
      <trkpt lat="49.16448" lon="6.78067">
        <ele>157.73</ele>
        <time>2018-03-05T13:37:31.000Z</time>
      </trkpt>
      <trkpt lat="49.16438" lon="6.78086">
        <ele>161.26</ele>
        <time>2018-03-05T13:37:41.000Z</time>
      </trkpt>
      <trkpt lat="49.16431" lon="6.78102">
        <ele>162.89</ele>
        <time>2018-03-05T13:37:51.000Z</time>
      </trkpt>
      <trkpt lat="49.16424" lon="6.78117">
        <ele>161.12</ele>
        <time>2018-03-05T13:38:01.000Z</time>
      </trkpt>
      <trkpt lat="49.16416" lon="6.78135">
        <ele>158.76</ele>
        <time>2018-03-05T13:38:11.000Z</time>
      </trkpt>
      <trkpt lat="49.16413" lon="6.7814">
        <ele>157.35</ele>
        <time>2018-03-05T13:38:21.000Z</time>
      </trkpt>
      <trkpt lat="49.16413" lon="6.78144">
        <ele>157.5</ele>
        <time>2018-03-05T13:38:59.000Z</time>
      </trkpt>
      <trkpt lat="49.16406" lon="6.78154">
        <ele>157.61</ele>
        <time>2018-03-05T13:39:09.000Z</time>
      </trkpt>
      <trkpt lat="49.16398" lon="6.78171">
        <ele>157.57</ele>
        <time>2018-03-05T13:39:19.000Z</time>
      </trkpt>
      <trkpt lat="49.16392" lon="6.7819">
        <ele>156.2</ele>
        <time>2018-03-05T13:39:29.000Z</time>
      </trkpt>
      <trkpt lat="49.16386" lon="6.78209">
        <ele>160.16</ele>
        <time>2018-03-05T13:39:39.000Z</time>
      </trkpt>
      <trkpt lat="49.16379" lon="6.78225">
        <ele>160.79</ele>
        <time>2018-03-05T13:39:49.000Z</time>
      </trkpt>
      <trkpt lat="49.1637" lon="6.78241">
        <ele>161.35</ele>
        <time>2018-03-05T13:39:59.000Z</time>
      </trkpt>
      <trkpt lat="49.16361" lon="6.78259">
        <ele>160.56</ele>
        <time>2018-03-05T13:40:09.000Z</time>
      </trkpt>
      <trkpt lat="49.16355" lon="6.78279">
        <ele>162.79</ele>
        <time>2018-03-05T13:40:19.000Z</time>
      </trkpt>
      <trkpt lat="49.16348" lon="6.78297">
        <ele>163.78</ele>
        <time>2018-03-05T13:40:29.000Z</time>
      </trkpt>
      <trkpt lat="49.16342" lon="6.78315">
        <ele>160.76</ele>
        <time>2018-03-05T13:40:39.000Z</time>
      </trkpt>
      <trkpt lat="49.16337" lon="6.78335">
        <ele>160.32</ele>
        <time>2018-03-05T13:40:49.000Z</time>
      </trkpt>
      <trkpt lat="49.1633" lon="6.78355">
        <ele>161.97</ele>
        <time>2018-03-05T13:40:59.000Z</time>
      </trkpt>
      <trkpt lat="49.16324" lon="6.78373">
        <ele>161.74</ele>
        <time>2018-03-05T13:41:09.000Z</time>
      </trkpt>
      <trkpt lat="49.16319" lon="6.78392">
        <ele>162.05</ele>
        <time>2018-03-05T13:41:19.000Z</time>
      </trkpt>
      <trkpt lat="49.16315" lon="6.78405">
        <ele>161.76</ele>
        <time>2018-03-05T13:41:29.000Z</time>
      </trkpt>
      <trkpt lat="49.16313" lon="6.78407">
        <ele>163.47</ele>
        <time>2018-03-05T13:41:40.000Z</time>
      </trkpt>
      <trkpt lat="49.16306" lon="6.78423">
        <ele>160.11</ele>
        <time>2018-03-05T13:41:50.000Z</time>
      </trkpt>
      <trkpt lat="49.163" lon="6.7844">
        <ele>160.72</ele>
        <time>2018-03-05T13:42:00.000Z</time>
      </trkpt>
      <trkpt lat="49.16292" lon="6.78455">
        <ele>161.17</ele>
        <time>2018-03-05T13:42:10.000Z</time>
      </trkpt>
      <trkpt lat="49.16284" lon="6.78475">
        <ele>161.66</ele>
        <time>2018-03-05T13:42:20.000Z</time>
      </trkpt>
      <trkpt lat="49.16278" lon="6.78493">
        <ele>160.83</ele>
        <time>2018-03-05T13:42:30.000Z</time>
      </trkpt>
      <trkpt lat="49.16269" lon="6.78509">
        <ele>161.06</ele>
        <time>2018-03-05T13:42:40.000Z</time>
      </trkpt>
      <trkpt lat="49.16264" lon="6.78528">
        <ele>160.04</ele>
        <time>2018-03-05T13:42:50.000Z</time>
      </trkpt>
      <trkpt lat="49.16256" lon="6.78545">
        <ele>157.26</ele>
        <time>2018-03-05T13:43:00.000Z</time>
      </trkpt>
      <trkpt lat="49.1625" lon="6.78562">
        <ele>154</ele>
        <time>2018-03-05T13:43:10.000Z</time>
      </trkpt>
      <trkpt lat="49.16243" lon="6.78581">
        <ele>152.76</ele>
        <time>2018-03-05T13:43:20.000Z</time>
      </trkpt>
      <trkpt lat="49.16235" lon="6.78599">
        <ele>151.39</ele>
        <time>2018-03-05T13:43:30.000Z</time>
      </trkpt>
      <trkpt lat="49.16225" lon="6.78613">
        <ele>148.33</ele>
        <time>2018-03-05T13:43:40.000Z</time>
      </trkpt>
      <trkpt lat="49.1622" lon="6.78631">
        <ele>148.63</ele>
        <time>2018-03-05T13:43:50.000Z</time>
      </trkpt>
      <trkpt lat="49.16214" lon="6.78648">
        <ele>157.28</ele>
        <time>2018-03-05T13:44:00.000Z</time>
      </trkpt>
      <trkpt lat="49.16206" lon="6.78659">
        <ele>157.34</ele>
        <time>2018-03-05T13:44:10.000Z</time>
      </trkpt>
      <trkpt lat="49.162" lon="6.78671">
        <ele>157.09</ele>
        <time>2018-03-05T13:44:20.000Z</time>
      </trkpt>
      <trkpt lat="49.16197" lon="6.78683">
        <ele>154.58</ele>
        <time>2018-03-05T13:44:30.000Z</time>
      </trkpt>
      <trkpt lat="49.16198" lon="6.78682">
        <ele>152.45</ele>
        <time>2018-03-05T13:44:43.000Z</time>
      </trkpt>
      <trkpt lat="49.162" lon="6.78679">
        <ele>153.84</ele>
        <time>2018-03-05T13:44:53.000Z</time>
      </trkpt>
      <trkpt lat="49.16204" lon="6.78671">
        <ele>155.5</ele>
        <time>2018-03-05T13:45:03.000Z</time>
      </trkpt>
      <trkpt lat="49.16207" lon="6.78657">
        <ele>153.77</ele>
        <time>2018-03-05T13:45:13.000Z</time>
      </trkpt>
      <trkpt lat="49.16216" lon="6.78646">
        <ele>151.14</ele>
        <time>2018-03-05T13:45:23.000Z</time>
      </trkpt>
      <trkpt lat="49.16225" lon="6.78646">
        <ele>153.07</ele>
        <time>2018-03-05T13:45:33.000Z</time>
      </trkpt>
      <trkpt lat="49.16231" lon="6.78656">
        <ele>152.57</ele>
        <time>2018-03-05T13:45:43.000Z</time>
      </trkpt>
      <trkpt lat="49.16235" lon="6.78671">
        <ele>155.41</ele>
        <time>2018-03-05T13:45:53.000Z</time>
      </trkpt>
      <trkpt lat="49.16227" lon="6.78684">
        <ele>155.23</ele>
        <time>2018-03-05T13:46:03.000Z</time>
      </trkpt>
      <trkpt lat="49.16221" lon="6.78694">
        <ele>151.86</ele>
        <time>2018-03-05T13:46:13.000Z</time>
      </trkpt>
      <trkpt lat="49.16213" lon="6.78706">
        <ele>149.99</ele>
        <time>2018-03-05T13:46:23.000Z</time>
      </trkpt>
      <trkpt lat="49.16204" lon="6.78719">
        <ele>151.17</ele>
        <time>2018-03-05T13:46:33.000Z</time>
      </trkpt>
      <trkpt lat="49.16194" lon="6.7873">
        <ele>150.6</ele>
        <time>2018-03-05T13:46:43.000Z</time>
      </trkpt>
      <trkpt lat="49.16187" lon="6.78743">
        <ele>155.57</ele>
        <time>2018-03-05T13:46:53.000Z</time>
      </trkpt>
      <trkpt lat="49.16186" lon="6.7875">
        <ele>156.62</ele>
        <time>2018-03-05T13:47:12.000Z</time>
      </trkpt>
      <trkpt lat="49.16176" lon="6.78755">
        <ele>156.3</ele>
        <time>2018-03-05T13:47:22.000Z</time>
      </trkpt>
      <trkpt lat="49.16168" lon="6.78763">
        <ele>153.5</ele>
        <time>2018-03-05T13:47:32.000Z</time>
      </trkpt>
      <trkpt lat="49.16159" lon="6.78774">
        <ele>152.95</ele>
        <time>2018-03-05T13:47:42.000Z</time>
      </trkpt>
      <trkpt lat="49.16151" lon="6.78786">
        <ele>149.17</ele>
        <time>2018-03-05T13:47:52.000Z</time>
      </trkpt>
      <trkpt lat="49.16143" lon="6.78805">
        <ele>148.93</ele>
        <time>2018-03-05T13:48:02.000Z</time>
      </trkpt>
      <trkpt lat="49.16133" lon="6.78822">
        <ele>152.76</ele>
        <time>2018-03-05T13:48:12.000Z</time>
      </trkpt>
      <trkpt lat="49.16125" lon="6.78838">
        <ele>150.89</ele>
        <time>2018-03-05T13:48:22.000Z</time>
      </trkpt>
      <trkpt lat="49.16117" lon="6.78854">
        <ele>151.15</ele>
        <time>2018-03-05T13:48:32.000Z</time>
      </trkpt>
      <trkpt lat="49.16109" lon="6.7887">
        <ele>152.29</ele>
        <time>2018-03-05T13:48:42.000Z</time>
      </trkpt>
      <trkpt lat="49.161" lon="6.78886">
        <ele>151.32</ele>
        <time>2018-03-05T13:48:52.000Z</time>
      </trkpt>
      <trkpt lat="49.16092" lon="6.78904">
        <ele>152.04</ele>
        <time>2018-03-05T13:49:02.000Z</time>
      </trkpt>
      <trkpt lat="49.16086" lon="6.78921">
        <ele>153.97</ele>
        <time>2018-03-05T13:49:12.000Z</time>
      </trkpt>
      <trkpt lat="49.16086" lon="6.78926">
        <ele>153.24</ele>
        <time>2018-03-05T13:49:22.000Z</time>
      </trkpt>
      <trkpt lat="49.16081" lon="6.78939">
        <ele>159.51</ele>
        <time>2018-03-05T13:49:32.000Z</time>
      </trkpt>
      <trkpt lat="49.16077" lon="6.78934">
        <ele>164.91</ele>
        <time>2018-03-05T13:49:42.000Z</time>
      </trkpt>
      <trkpt lat="49.16076" lon="6.78937">
        <ele>168.91</ele>
        <time>2018-03-05T13:49:53.000Z</time>
      </trkpt>
      <trkpt lat="49.16071" lon="6.78948">
        <ele>169.09</ele>
        <time>2018-03-05T13:50:03.000Z</time>
      </trkpt>
      <trkpt lat="49.16065" lon="6.78963">
        <ele>165.84</ele>
        <time>2018-03-05T13:50:13.000Z</time>
      </trkpt>
      <trkpt lat="49.16057" lon="6.78978">
        <ele>161.85</ele>
        <time>2018-03-05T13:50:23.000Z</time>
      </trkpt>
      <trkpt lat="49.16048" lon="6.78997">
        <ele>158.94</ele>
        <time>2018-03-05T13:50:33.000Z</time>
      </trkpt>
      <trkpt lat="49.16041" lon="6.79013">
        <ele>154.79</ele>
        <time>2018-03-05T13:50:43.000Z</time>
      </trkpt>
      <trkpt lat="49.16033" lon="6.79028">
        <ele>152.22</ele>
        <time>2018-03-05T13:50:53.000Z</time>
      </trkpt>
      <trkpt lat="49.16025" lon="6.79047">
        <ele>153.13</ele>
        <time>2018-03-05T13:51:03.000Z</time>
      </trkpt>
      <trkpt lat="49.16017" lon="6.79064">
        <ele>150.94</ele>
        <time>2018-03-05T13:51:13.000Z</time>
      </trkpt>
      <trkpt lat="49.16009" lon="6.79081">
        <ele>150.61</ele>
        <time>2018-03-05T13:51:23.000Z</time>
      </trkpt>
      <trkpt lat="49.16002" lon="6.79097">
        <ele>152.22</ele>
        <time>2018-03-05T13:51:33.000Z</time>
      </trkpt>
      <trkpt lat="49.15993" lon="6.79114">
        <ele>152.22</ele>
        <time>2018-03-05T13:51:43.000Z</time>
      </trkpt>
      <trkpt lat="49.15986" lon="6.79132">
        <ele>154.11</ele>
        <time>2018-03-05T13:51:53.000Z</time>
      </trkpt>
      <trkpt lat="49.15976" lon="6.79151">
        <ele>159.96</ele>
        <time>2018-03-05T13:52:03.000Z</time>
      </trkpt>
      <trkpt lat="49.15968" lon="6.79171">
        <ele>163.72</ele>
        <time>2018-03-05T13:52:13.000Z</time>
      </trkpt>
      <trkpt lat="49.15961" lon="6.79187">
        <ele>160.52</ele>
        <time>2018-03-05T13:52:23.000Z</time>
      </trkpt>
      <trkpt lat="49.15955" lon="6.79202">
        <ele>157.83</ele>
        <time>2018-03-05T13:52:33.000Z</time>
      </trkpt>
      <trkpt lat="49.15951" lon="6.7922">
        <ele>153.36</ele>
        <time>2018-03-05T13:52:43.000Z</time>
      </trkpt>
      <trkpt lat="49.15944" lon="6.79241">
        <ele>152.08</ele>
        <time>2018-03-05T13:52:53.000Z</time>
      </trkpt>
      <trkpt lat="49.15937" lon="6.79265">
        <ele>154.19</ele>
        <time>2018-03-05T13:53:03.000Z</time>
      </trkpt>
      <trkpt lat="49.15932" lon="6.79289">
        <ele>163.67</ele>
        <time>2018-03-05T13:53:13.000Z</time>
      </trkpt>
      <trkpt lat="49.15924" lon="6.79305">
        <ele>164.08</ele>
        <time>2018-03-05T13:53:23.000Z</time>
      </trkpt>
      <trkpt lat="49.15916" lon="6.79319">
        <ele>164.33</ele>
        <time>2018-03-05T13:53:33.000Z</time>
      </trkpt>
      <trkpt lat="49.15908" lon="6.79337">
        <ele>164.35</ele>
        <time>2018-03-05T13:53:43.000Z</time>
      </trkpt>
      <trkpt lat="49.15907" lon="6.79354">
        <ele>163.74</ele>
        <time>2018-03-05T13:53:53.000Z</time>
      </trkpt>
      <trkpt lat="49.1591" lon="6.79364">
        <ele>160.57</ele>
        <time>2018-03-05T13:54:03.000Z</time>
      </trkpt>
      <trkpt lat="49.15909" lon="6.79364">
        <ele>161.49</ele>
        <time>2018-03-05T13:54:18.000Z</time>
      </trkpt>
      <trkpt lat="49.15898" lon="6.79365">
        <ele>162.65</ele>
        <time>2018-03-05T13:54:28.000Z</time>
      </trkpt>
      <trkpt lat="49.15887" lon="6.7936">
        <ele>163.46</ele>
        <time>2018-03-05T13:54:38.000Z</time>
      </trkpt>
      <trkpt lat="49.15885" lon="6.79359">
        <ele>164.93</ele>
        <time>2018-03-05T13:54:48.000Z</time>
      </trkpt>
      <trkpt lat="49.15884" lon="6.79362">
        <ele>167.78</ele>
        <time>2018-03-05T13:55:32.000Z</time>
      </trkpt>
      <trkpt lat="49.15882" lon="6.79383">
        <ele>167.21</ele>
        <time>2018-03-05T13:55:42.000Z</time>
      </trkpt>
      <trkpt lat="49.15882" lon="6.79406">
        <ele>164.37</ele>
        <time>2018-03-05T13:55:52.000Z</time>
      </trkpt>
      <trkpt lat="49.15887" lon="6.79425">
        <ele>158.89</ele>
        <time>2018-03-05T13:56:02.000Z</time>
      </trkpt>
      <trkpt lat="49.1589" lon="6.79445">
        <ele>157.41</ele>
        <time>2018-03-05T13:56:12.000Z</time>
      </trkpt>
      <trkpt lat="49.15894" lon="6.79466">
        <ele>156.55</ele>
        <time>2018-03-05T13:56:22.000Z</time>
      </trkpt>
      <trkpt lat="49.15894" lon="6.79488">
        <ele>158.01</ele>
        <time>2018-03-05T13:56:32.000Z</time>
      </trkpt>
      <trkpt lat="49.15898" lon="6.7951">
        <ele>162.5</ele>
        <time>2018-03-05T13:56:42.000Z</time>
      </trkpt>
      <trkpt lat="49.15897" lon="6.79532">
        <ele>164.59</ele>
        <time>2018-03-05T13:56:52.000Z</time>
      </trkpt>
      <trkpt lat="49.15897" lon="6.79551">
        <ele>162.92</ele>
        <time>2018-03-05T13:57:02.000Z</time>
      </trkpt>
      <trkpt lat="49.15902" lon="6.79568">
        <ele>159.32</ele>
        <time>2018-03-05T13:57:12.000Z</time>
      </trkpt>
      <trkpt lat="49.15909" lon="6.79589">
        <ele>161.67</ele>
        <time>2018-03-05T13:57:22.000Z</time>
      </trkpt>
      <trkpt lat="49.15912" lon="6.79608">
        <ele>166.4</ele>
        <time>2018-03-05T13:57:32.000Z</time>
      </trkpt>
      <trkpt lat="49.15908" lon="6.79628">
        <ele>167.24</ele>
        <time>2018-03-05T13:57:42.000Z</time>
      </trkpt>
      <trkpt lat="49.15904" lon="6.79646">
        <ele>165.43</ele>
        <time>2018-03-05T13:57:52.000Z</time>
      </trkpt>
      <trkpt lat="49.15899" lon="6.79665">
        <ele>165.11</ele>
        <time>2018-03-05T13:58:02.000Z</time>
      </trkpt>
      <trkpt lat="49.15891" lon="6.79682">
        <ele>168.78</ele>
        <time>2018-03-05T13:58:12.000Z</time>
      </trkpt>
      <trkpt lat="49.15882" lon="6.79699">
        <ele>168.46</ele>
        <time>2018-03-05T13:58:22.000Z</time>
      </trkpt>
      <trkpt lat="49.15874" lon="6.79715">
        <ele>169.74</ele>
        <time>2018-03-05T13:58:32.000Z</time>
      </trkpt>
      <trkpt lat="49.15868" lon="6.79731">
        <ele>171.59</ele>
        <time>2018-03-05T13:58:42.000Z</time>
      </trkpt>
      <trkpt lat="49.1586" lon="6.79744">
        <ele>170.62</ele>
        <time>2018-03-05T13:58:52.000Z</time>
      </trkpt>
      <trkpt lat="49.15856" lon="6.79759">
        <ele>175.05</ele>
        <time>2018-03-05T13:59:02.000Z</time>
      </trkpt>
      <trkpt lat="49.15856" lon="6.7977">
        <ele>177.77</ele>
        <time>2018-03-05T13:59:12.000Z</time>
      </trkpt>
      <trkpt lat="49.15854" lon="6.79771">
        <ele>179.38</ele>
        <time>2018-03-05T13:59:28.000Z</time>
      </trkpt>
      <trkpt lat="49.15846" lon="6.79784">
        <ele>181.08</ele>
        <time>2018-03-05T13:59:38.000Z</time>
      </trkpt>
      <trkpt lat="49.15838" lon="6.79798">
        <ele>180.29</ele>
        <time>2018-03-05T13:59:48.000Z</time>
      </trkpt>
      <trkpt lat="49.15829" lon="6.79808">
        <ele>180.6</ele>
        <time>2018-03-05T13:59:58.000Z</time>
      </trkpt>
      <trkpt lat="49.15823" lon="6.79818">
        <ele>184.68</ele>
        <time>2018-03-05T14:00:08.000Z</time>
      </trkpt>
      <trkpt lat="49.15817" lon="6.79824">
        <ele>187.57</ele>
        <time>2018-03-05T14:00:18.000Z</time>
      </trkpt>
      <trkpt lat="49.15811" lon="6.79833">
        <ele>185.92</ele>
        <time>2018-03-05T14:00:28.000Z</time>
      </trkpt>
      <trkpt lat="49.1581" lon="6.79834">
        <ele>185.72</ele>
        <time>2018-03-05T14:00:38.000Z</time>
      </trkpt>
      <trkpt lat="49.15809" lon="6.79837">
        <ele>185.52</ele>
        <time>2018-03-05T14:00:48.000Z</time>
      </trkpt>
      <trkpt lat="49.15807" lon="6.79853">
        <ele>181.55</ele>
        <time>2018-03-05T14:00:58.000Z</time>
      </trkpt>
      <trkpt lat="49.15808" lon="6.79871">
        <ele>183.74</ele>
        <time>2018-03-05T14:01:08.000Z</time>
      </trkpt>
      <trkpt lat="49.15805" lon="6.79889">
        <ele>185</ele>
        <time>2018-03-05T14:01:18.000Z</time>
      </trkpt>
      <trkpt lat="49.15801" lon="6.79905">
        <ele>189.84</ele>
        <time>2018-03-05T14:01:28.000Z</time>
      </trkpt>
      <trkpt lat="49.15799" lon="6.79918">
        <ele>191.63</ele>
        <time>2018-03-05T14:01:38.000Z</time>
      </trkpt>
      <trkpt lat="49.15798" lon="6.79922">
        <ele>195.99</ele>
        <time>2018-03-05T14:01:48.000Z</time>
      </trkpt>
      <trkpt lat="49.15796" lon="6.79928">
        <ele>197.5</ele>
        <time>2018-03-05T14:02:04.000Z</time>
      </trkpt>
      <trkpt lat="49.15792" lon="6.79943">
        <ele>189.85</ele>
        <time>2018-03-05T14:02:14.000Z</time>
      </trkpt>
      <trkpt lat="49.15787" lon="6.79966">
        <ele>189.21</ele>
        <time>2018-03-05T14:02:24.000Z</time>
      </trkpt>
      <trkpt lat="49.1579" lon="6.79988">
        <ele>186.58</ele>
        <time>2018-03-05T14:02:34.000Z</time>
      </trkpt>
      <trkpt lat="49.15793" lon="6.80009">
        <ele>182.96</ele>
        <time>2018-03-05T14:02:44.000Z</time>
      </trkpt>
      <trkpt lat="49.15793" lon="6.80027">
        <ele>179.35</ele>
        <time>2018-03-05T14:02:54.000Z</time>
      </trkpt>
      <trkpt lat="49.15797" lon="6.80045">
        <ele>179.52</ele>
        <time>2018-03-05T14:03:04.000Z</time>
      </trkpt>
      <trkpt lat="49.15796" lon="6.80062">
        <ele>178.97</ele>
        <time>2018-03-05T14:03:14.000Z</time>
      </trkpt>
      <trkpt lat="49.1579" lon="6.80079">
        <ele>176.95</ele>
        <time>2018-03-05T14:03:24.000Z</time>
      </trkpt>
      <trkpt lat="49.1578" lon="6.80103">
        <ele>182.84</ele>
        <time>2018-03-05T14:03:34.000Z</time>
      </trkpt>
      <trkpt lat="49.15775" lon="6.80118">
        <ele>183.26</ele>
        <time>2018-03-05T14:03:44.000Z</time>
      </trkpt>
      <trkpt lat="49.15771" lon="6.80143">
        <ele>185.71</ele>
        <time>2018-03-05T14:03:54.000Z</time>
      </trkpt>
      <trkpt lat="49.15773" lon="6.80161">
        <ele>186.29</ele>
        <time>2018-03-05T14:04:04.000Z</time>
      </trkpt>
      <trkpt lat="49.15771" lon="6.80181">
        <ele>189.2</ele>
        <time>2018-03-05T14:04:14.000Z</time>
      </trkpt>
      <trkpt lat="49.15764" lon="6.802">
        <ele>190.72</ele>
        <time>2018-03-05T14:04:24.000Z</time>
      </trkpt>
      <trkpt lat="49.15749" lon="6.80211">
        <ele>197.62</ele>
        <time>2018-03-05T14:04:34.000Z</time>
      </trkpt>
      <trkpt lat="49.15734" lon="6.80216">
        <ele>200.78</ele>
        <time>2018-03-05T14:04:44.000Z</time>
      </trkpt>
      <trkpt lat="49.15722" lon="6.80225">
        <ele>205.45</ele>
        <time>2018-03-05T14:04:54.000Z</time>
      </trkpt>
      <trkpt lat="49.15715" lon="6.80238">
        <ele>205.29</ele>
        <time>2018-03-05T14:05:04.000Z</time>
      </trkpt>
      <trkpt lat="49.15711" lon="6.80251">
        <ele>202.91</ele>
        <time>2018-03-05T14:05:14.000Z</time>
      </trkpt>
      <trkpt lat="49.15706" lon="6.80268">
        <ele>203.3</ele>
        <time>2018-03-05T14:05:24.000Z</time>
      </trkpt>
      <trkpt lat="49.157" lon="6.80285">
        <ele>202.13</ele>
        <time>2018-03-05T14:05:34.000Z</time>
      </trkpt>
      <trkpt lat="49.15693" lon="6.80303">
        <ele>202.38</ele>
        <time>2018-03-05T14:05:44.000Z</time>
      </trkpt>
      <trkpt lat="49.15686" lon="6.80318">
        <ele>201.25</ele>
        <time>2018-03-05T14:05:54.000Z</time>
      </trkpt>
      <trkpt lat="49.1568" lon="6.80333">
        <ele>201.57</ele>
        <time>2018-03-05T14:06:04.000Z</time>
      </trkpt>
      <trkpt lat="49.1567" lon="6.80354">
        <ele>204.8</ele>
        <time>2018-03-05T14:06:14.000Z</time>
      </trkpt>
      <trkpt lat="49.15659" lon="6.80373">
        <ele>208.03</ele>
        <time>2018-03-05T14:06:24.000Z</time>
      </trkpt>
      <trkpt lat="49.15653" lon="6.80389">
        <ele>208.6</ele>
        <time>2018-03-05T14:06:34.000Z</time>
      </trkpt>
      <trkpt lat="49.15645" lon="6.8041">
        <ele>204.84</ele>
        <time>2018-03-05T14:06:44.000Z</time>
      </trkpt>
      <trkpt lat="49.15635" lon="6.8043">
        <ele>204.73</ele>
        <time>2018-03-05T14:06:54.000Z</time>
      </trkpt>
      <trkpt lat="49.15627" lon="6.80449">
        <ele>207.74</ele>
        <time>2018-03-05T14:07:04.000Z</time>
      </trkpt>
      <trkpt lat="49.1562" lon="6.80466">
        <ele>210.41</ele>
        <time>2018-03-05T14:07:14.000Z</time>
      </trkpt>
      <trkpt lat="49.15613" lon="6.80479">
        <ele>211.59</ele>
        <time>2018-03-05T14:07:24.000Z</time>
      </trkpt>
      <trkpt lat="49.1561" lon="6.80485">
        <ele>213.41</ele>
        <time>2018-03-05T14:07:34.000Z</time>
      </trkpt>
      <trkpt lat="49.15606" lon="6.80503">
        <ele>225.83</ele>
        <time>2018-03-05T14:07:44.000Z</time>
      </trkpt>
      <trkpt lat="49.15609" lon="6.80519">
        <ele>225</ele>
        <time>2018-03-05T14:07:54.000Z</time>
      </trkpt>
      <trkpt lat="49.15616" lon="6.80528">
        <ele>220.6</ele>
        <time>2018-03-05T14:08:04.000Z</time>
      </trkpt>
      <trkpt lat="49.15617" lon="6.80527">
        <ele>220.27</ele>
        <time>2018-03-05T14:08:14.000Z</time>
      </trkpt>
      <trkpt lat="49.1562" lon="6.80531">
        <ele>218.7</ele>
        <time>2018-03-05T14:08:24.000Z</time>
      </trkpt>
      <trkpt lat="49.15631" lon="6.80533">
        <ele>211.53</ele>
        <time>2018-03-05T14:08:34.000Z</time>
      </trkpt>
      <trkpt lat="49.15642" lon="6.80546">
        <ele>216.03</ele>
        <time>2018-03-05T14:08:44.000Z</time>
      </trkpt>
      <trkpt lat="49.15647" lon="6.8056">
        <ele>218.59</ele>
        <time>2018-03-05T14:08:54.000Z</time>
      </trkpt>
      <trkpt lat="49.15654" lon="6.80571">
        <ele>218.26</ele>
        <time>2018-03-05T14:09:04.000Z</time>
      </trkpt>
      <trkpt lat="49.1566" lon="6.80592">
        <ele>214.65</ele>
        <time>2018-03-05T14:09:14.000Z</time>
      </trkpt>
      <trkpt lat="49.15668" lon="6.80614">
        <ele>216.07</ele>
        <time>2018-03-05T14:09:24.000Z</time>
      </trkpt>
      <trkpt lat="49.15676" lon="6.80629">
        <ele>213.35</ele>
        <time>2018-03-05T14:09:34.000Z</time>
      </trkpt>
      <trkpt lat="49.15686" lon="6.80645">
        <ele>214.4</ele>
        <time>2018-03-05T14:09:44.000Z</time>
      </trkpt>
      <trkpt lat="49.15694" lon="6.80658">
        <ele>212.9</ele>
        <time>2018-03-05T14:09:54.000Z</time>
      </trkpt>
      <trkpt lat="49.15705" lon="6.80671">
        <ele>210.82</ele>
        <time>2018-03-05T14:10:04.000Z</time>
      </trkpt>
      <trkpt lat="49.15708" lon="6.80693">
        <ele>212.68</ele>
        <time>2018-03-05T14:10:14.000Z</time>
      </trkpt>
      <trkpt lat="49.15719" lon="6.80712">
        <ele>216.04</ele>
        <time>2018-03-05T14:10:24.000Z</time>
      </trkpt>
      <trkpt lat="49.15732" lon="6.80725">
        <ele>218.36</ele>
        <time>2018-03-05T14:10:34.000Z</time>
      </trkpt>
      <trkpt lat="49.15737" lon="6.80737">
        <ele>221.5</ele>
        <time>2018-03-05T14:10:44.000Z</time>
      </trkpt>
      <trkpt lat="49.1574" lon="6.80743">
        <ele>220.71</ele>
        <time>2018-03-05T14:10:54.000Z</time>
      </trkpt>
      <trkpt lat="49.15745" lon="6.80763">
        <ele>222.59</ele>
        <time>2018-03-05T14:11:04.000Z</time>
      </trkpt>
      <trkpt lat="49.1575" lon="6.8078">
        <ele>223.17</ele>
        <time>2018-03-05T14:11:14.000Z</time>
      </trkpt>
      <trkpt lat="49.15755" lon="6.80797">
        <ele>221.07</ele>
        <time>2018-03-05T14:11:24.000Z</time>
      </trkpt>
      <trkpt lat="49.15761" lon="6.80816">
        <ele>217.23</ele>
        <time>2018-03-05T14:11:34.000Z</time>
      </trkpt>
      <trkpt lat="49.15773" lon="6.80833">
        <ele>216.46</ele>
        <time>2018-03-05T14:11:44.000Z</time>
      </trkpt>
      <trkpt lat="49.15777" lon="6.80851">
        <ele>215.46</ele>
        <time>2018-03-05T14:11:54.000Z</time>
      </trkpt>
      <trkpt lat="49.15784" lon="6.80866">
        <ele>215.97</ele>
        <time>2018-03-05T14:12:04.000Z</time>
      </trkpt>
      <trkpt lat="49.15794" lon="6.80885">
        <ele>220.94</ele>
        <time>2018-03-05T14:12:14.000Z</time>
      </trkpt>
      <trkpt lat="49.15792" lon="6.80903">
        <ele>219.85</ele>
        <time>2018-03-05T14:12:24.000Z</time>
      </trkpt>
      <trkpt lat="49.15792" lon="6.80924">
        <ele>219.45</ele>
        <time>2018-03-05T14:12:34.000Z</time>
      </trkpt>
      <trkpt lat="49.158" lon="6.80928">
        <ele>219.68</ele>
        <time>2018-03-05T14:12:44.000Z</time>
      </trkpt>
      <trkpt lat="49.15803" lon="6.8093">
        <ele>223.99</ele>
        <time>2018-03-05T14:12:54.000Z</time>
      </trkpt>
      <trkpt lat="49.15808" lon="6.80938">
        <ele>221.26</ele>
        <time>2018-03-05T14:13:04.000Z</time>
      </trkpt>
      <trkpt lat="49.15813" lon="6.80933">
        <ele>227.14</ele>
        <time>2018-03-05T14:13:14.000Z</time>
      </trkpt>
      <trkpt lat="49.15811" lon="6.80922">
        <ele>229.08</ele>
        <time>2018-03-05T14:13:24.000Z</time>
      </trkpt>
      <trkpt lat="49.1581" lon="6.80916">
        <ele>229.06</ele>
        <time>2018-03-05T14:13:42.000Z</time>
      </trkpt>
      <trkpt lat="49.15814" lon="6.80915">
        <ele>226.51</ele>
        <time>2018-03-05T14:13:52.000Z</time>
      </trkpt>
      <trkpt lat="49.15818" lon="6.80914">
        <ele>226.13</ele>
        <time>2018-03-05T14:14:08.000Z</time>
      </trkpt>
      <trkpt lat="49.15819" lon="6.80904">
        <ele>225.24</ele>
        <time>2018-03-05T14:14:18.000Z</time>
      </trkpt>
      <trkpt lat="49.15824" lon="6.80893">
        <ele>224.54</ele>
        <time>2018-03-05T14:14:28.000Z</time>
      </trkpt>
      <trkpt lat="49.1583" lon="6.80882">
        <ele>223.32</ele>
        <time>2018-03-05T14:14:38.000Z</time>
      </trkpt>
      <trkpt lat="49.15839" lon="6.80866">
        <ele>227.53</ele>
        <time>2018-03-05T14:14:48.000Z</time>
      </trkpt>
      <trkpt lat="49.15847" lon="6.80848">
        <ele>232.53</ele>
        <time>2018-03-05T14:14:58.000Z</time>
      </trkpt>
      <trkpt lat="49.15853" lon="6.80828">
        <ele>234.62</ele>
        <time>2018-03-05T14:15:08.000Z</time>
      </trkpt>
      <trkpt lat="49.15859" lon="6.80811">
        <ele>233.73</ele>
        <time>2018-03-05T14:15:18.000Z</time>
      </trkpt>
      <trkpt lat="49.15868" lon="6.80795">
        <ele>233.77</ele>
        <time>2018-03-05T14:15:28.000Z</time>
      </trkpt>
      <trkpt lat="49.15869" lon="6.80793">
        <ele>234.71</ele>
        <time>2018-03-05T14:15:38.000Z</time>
      </trkpt>
      <trkpt lat="49.15871" lon="6.80791">
        <ele>235.61</ele>
        <time>2018-03-05T14:16:44.000Z</time>
      </trkpt>
      <trkpt lat="49.15881" lon="6.80782">
        <ele>234.09</ele>
        <time>2018-03-05T14:16:54.000Z</time>
      </trkpt>
      <trkpt lat="49.15891" lon="6.80768">
        <ele>231.24</ele>
        <time>2018-03-05T14:17:04.000Z</time>
      </trkpt>
      <trkpt lat="49.15901" lon="6.80752">
        <ele>231.61</ele>
        <time>2018-03-05T14:17:14.000Z</time>
      </trkpt>
      <trkpt lat="49.15911" lon="6.80735">
        <ele>232.9</ele>
        <time>2018-03-05T14:17:24.000Z</time>
      </trkpt>
      <trkpt lat="49.15923" lon="6.80721">
        <ele>233.45</ele>
        <time>2018-03-05T14:17:34.000Z</time>
      </trkpt>
      <trkpt lat="49.15934" lon="6.80709">
        <ele>231.53</ele>
        <time>2018-03-05T14:17:44.000Z</time>
      </trkpt>
      <trkpt lat="49.15944" lon="6.80694">
        <ele>232.51</ele>
        <time>2018-03-05T14:17:54.000Z</time>
      </trkpt>
      <trkpt lat="49.15955" lon="6.80676">
        <ele>236.52</ele>
        <time>2018-03-05T14:18:04.000Z</time>
      </trkpt>
      <trkpt lat="49.15965" lon="6.80661">
        <ele>235.78</ele>
        <time>2018-03-05T14:18:14.000Z</time>
      </trkpt>
      <trkpt lat="49.15974" lon="6.80655">
        <ele>230.06</ele>
        <time>2018-03-05T14:18:24.000Z</time>
      </trkpt>
      <trkpt lat="49.15986" lon="6.80641">
        <ele>230.16</ele>
        <time>2018-03-05T14:18:34.000Z</time>
      </trkpt>
      <trkpt lat="49.15994" lon="6.8063">
        <ele>232.1</ele>
        <time>2018-03-05T14:18:44.000Z</time>
      </trkpt>
      <trkpt lat="49.16005" lon="6.80618">
        <ele>231.47</ele>
        <time>2018-03-05T14:18:54.000Z</time>
      </trkpt>
      <trkpt lat="49.16014" lon="6.80608">
        <ele>228.37</ele>
        <time>2018-03-05T14:19:04.000Z</time>
      </trkpt>
      <trkpt lat="49.16023" lon="6.80596">
        <ele>227.65</ele>
        <time>2018-03-05T14:19:14.000Z</time>
      </trkpt>
      <trkpt lat="49.16033" lon="6.80577">
        <ele>231.27</ele>
        <time>2018-03-05T14:19:24.000Z</time>
      </trkpt>
      <trkpt lat="49.16038" lon="6.8056">
        <ele>231.98</ele>
        <time>2018-03-05T14:19:34.000Z</time>
      </trkpt>
      <trkpt lat="49.16045" lon="6.80543">
        <ele>234.47</ele>
        <time>2018-03-05T14:19:44.000Z</time>
      </trkpt>
      <trkpt lat="49.16053" lon="6.80522">
        <ele>236.17</ele>
        <time>2018-03-05T14:19:54.000Z</time>
      </trkpt>
      <trkpt lat="49.16061" lon="6.80502">
        <ele>237.63</ele>
        <time>2018-03-05T14:20:04.000Z</time>
      </trkpt>
      <trkpt lat="49.16068" lon="6.80482">
        <ele>238.63</ele>
        <time>2018-03-05T14:20:14.000Z</time>
      </trkpt>
      <trkpt lat="49.16077" lon="6.80466">
        <ele>238.25</ele>
        <time>2018-03-05T14:20:24.000Z</time>
      </trkpt>
      <trkpt lat="49.16084" lon="6.80451">
        <ele>235.44</ele>
        <time>2018-03-05T14:20:34.000Z</time>
      </trkpt>
      <trkpt lat="49.16092" lon="6.80433">
        <ele>237.29</ele>
        <time>2018-03-05T14:20:44.000Z</time>
      </trkpt>
      <trkpt lat="49.16098" lon="6.8041">
        <ele>239.4</ele>
        <time>2018-03-05T14:20:54.000Z</time>
      </trkpt>
      <trkpt lat="49.16105" lon="6.80389">
        <ele>238.01</ele>
        <time>2018-03-05T14:21:04.000Z</time>
      </trkpt>
      <trkpt lat="49.1611" lon="6.80371">
        <ele>236.3</ele>
        <time>2018-03-05T14:21:14.000Z</time>
      </trkpt>
      <trkpt lat="49.1612" lon="6.80356">
        <ele>239.03</ele>
        <time>2018-03-05T14:21:24.000Z</time>
      </trkpt>
      <trkpt lat="49.16127" lon="6.8034">
        <ele>240.67</ele>
        <time>2018-03-05T14:21:34.000Z</time>
      </trkpt>
      <trkpt lat="49.16135" lon="6.80338">
        <ele>239.82</ele>
        <time>2018-03-05T14:21:44.000Z</time>
      </trkpt>
      <trkpt lat="49.16138" lon="6.80331">
        <ele>237.95</ele>
        <time>2018-03-05T14:21:54.000Z</time>
      </trkpt>
      <trkpt lat="49.1614" lon="6.80324">
        <ele>237.82</ele>
        <time>2018-03-05T14:22:04.000Z</time>
      </trkpt>
      <trkpt lat="49.16141" lon="6.80322">
        <ele>237.59</ele>
        <time>2018-03-05T14:22:14.000Z</time>
      </trkpt>
      <trkpt lat="49.16152" lon="6.80317">
        <ele>236.48</ele>
        <time>2018-03-05T14:22:24.000Z</time>
      </trkpt>
      <trkpt lat="49.16162" lon="6.80313">
        <ele>236.99</ele>
        <time>2018-03-05T14:22:34.000Z</time>
      </trkpt>
      <trkpt lat="49.16174" lon="6.803">
        <ele>238.32</ele>
        <time>2018-03-05T14:22:44.000Z</time>
      </trkpt>
      <trkpt lat="49.16179" lon="6.80289">
        <ele>232.54</ele>
        <time>2018-03-05T14:22:54.000Z</time>
      </trkpt>
      <trkpt lat="49.16186" lon="6.80273">
        <ele>233.97</ele>
        <time>2018-03-05T14:23:04.000Z</time>
      </trkpt>
      <trkpt lat="49.16194" lon="6.80254">
        <ele>235.55</ele>
        <time>2018-03-05T14:23:14.000Z</time>
      </trkpt>
      <trkpt lat="49.162" lon="6.8023">
        <ele>236.67</ele>
        <time>2018-03-05T14:23:24.000Z</time>
      </trkpt>
      <trkpt lat="49.16204" lon="6.8021">
        <ele>237.04</ele>
        <time>2018-03-05T14:23:34.000Z</time>
      </trkpt>
      <trkpt lat="49.16208" lon="6.80193">
        <ele>236.16</ele>
        <time>2018-03-05T14:23:44.000Z</time>
      </trkpt>
      <trkpt lat="49.16212" lon="6.80171">
        <ele>236.97</ele>
        <time>2018-03-05T14:23:54.000Z</time>
      </trkpt>
      <trkpt lat="49.16215" lon="6.80151">
        <ele>234.1</ele>
        <time>2018-03-05T14:24:04.000Z</time>
      </trkpt>
      <trkpt lat="49.16218" lon="6.8013">
        <ele>234.58</ele>
        <time>2018-03-05T14:24:14.000Z</time>
      </trkpt>
      <trkpt lat="49.1622" lon="6.80112">
        <ele>232.88</ele>
        <time>2018-03-05T14:24:24.000Z</time>
      </trkpt>
      <trkpt lat="49.16221" lon="6.8009">
        <ele>233.45</ele>
        <time>2018-03-05T14:24:34.000Z</time>
      </trkpt>
      <trkpt lat="49.16225" lon="6.8007">
        <ele>233.42</ele>
        <time>2018-03-05T14:24:44.000Z</time>
      </trkpt>
      <trkpt lat="49.16229" lon="6.80047">
        <ele>235.02</ele>
        <time>2018-03-05T14:24:54.000Z</time>
      </trkpt>
      <trkpt lat="49.16231" lon="6.80031">
        <ele>235.16</ele>
        <time>2018-03-05T14:25:04.000Z</time>
      </trkpt>
      <trkpt lat="49.16234" lon="6.80008">
        <ele>235.54</ele>
        <time>2018-03-05T14:25:14.000Z</time>
      </trkpt>
      <trkpt lat="49.16238" lon="6.79987">
        <ele>236.01</ele>
        <time>2018-03-05T14:25:24.000Z</time>
      </trkpt>
      <trkpt lat="49.16243" lon="6.79969">
        <ele>237.53</ele>
        <time>2018-03-05T14:25:34.000Z</time>
      </trkpt>
      <trkpt lat="49.1625" lon="6.79953">
        <ele>239.45</ele>
        <time>2018-03-05T14:25:44.000Z</time>
      </trkpt>
      <trkpt lat="49.16257" lon="6.79937">
        <ele>237.52</ele>
        <time>2018-03-05T14:25:54.000Z</time>
      </trkpt>
      <trkpt lat="49.1626" lon="6.79917">
        <ele>237.08</ele>
        <time>2018-03-05T14:26:04.000Z</time>
      </trkpt>
      <trkpt lat="49.16262" lon="6.79898">
        <ele>236.74</ele>
        <time>2018-03-05T14:26:14.000Z</time>
      </trkpt>
      <trkpt lat="49.16266" lon="6.79879">
        <ele>236.06</ele>
        <time>2018-03-05T14:26:24.000Z</time>
      </trkpt>
      <trkpt lat="49.16271" lon="6.79865">
        <ele>236.03</ele>
        <time>2018-03-05T14:26:34.000Z</time>
      </trkpt>
      <trkpt lat="49.16272" lon="6.79859">
        <ele>238.22</ele>
        <time>2018-03-05T14:26:44.000Z</time>
      </trkpt>
      <trkpt lat="49.16274" lon="6.79851">
        <ele>239.72</ele>
        <time>2018-03-05T14:27:18.000Z</time>
      </trkpt>
      <trkpt lat="49.16274" lon="6.79836">
        <ele>240.42</ele>
        <time>2018-03-05T14:27:28.000Z</time>
      </trkpt>
      <trkpt lat="49.16277" lon="6.79814">
        <ele>241.11</ele>
        <time>2018-03-05T14:27:38.000Z</time>
      </trkpt>
      <trkpt lat="49.16285" lon="6.79792">
        <ele>239.94</ele>
        <time>2018-03-05T14:27:48.000Z</time>
      </trkpt>
      <trkpt lat="49.16289" lon="6.79772">
        <ele>237.41</ele>
        <time>2018-03-05T14:27:58.000Z</time>
      </trkpt>
      <trkpt lat="49.16291" lon="6.79755">
        <ele>237.6</ele>
        <time>2018-03-05T14:28:08.000Z</time>
      </trkpt>
      <trkpt lat="49.16292" lon="6.79733">
        <ele>236.65</ele>
        <time>2018-03-05T14:28:18.000Z</time>
      </trkpt>
      <trkpt lat="49.16292" lon="6.79712">
        <ele>235.43</ele>
        <time>2018-03-05T14:28:28.000Z</time>
      </trkpt>
      <trkpt lat="49.16292" lon="6.79693">
        <ele>235.53</ele>
        <time>2018-03-05T14:28:38.000Z</time>
      </trkpt>
      <trkpt lat="49.16294" lon="6.79671">
        <ele>236.86</ele>
        <time>2018-03-05T14:28:48.000Z</time>
      </trkpt>
      <trkpt lat="49.16291" lon="6.79653">
        <ele>238.63</ele>
        <time>2018-03-05T14:28:58.000Z</time>
      </trkpt>
      <trkpt lat="49.16289" lon="6.7963">
        <ele>239.82</ele>
        <time>2018-03-05T14:29:08.000Z</time>
      </trkpt>
      <trkpt lat="49.1629" lon="6.79613">
        <ele>237.87</ele>
        <time>2018-03-05T14:29:18.000Z</time>
      </trkpt>
      <trkpt lat="49.16292" lon="6.79594">
        <ele>236.43</ele>
        <time>2018-03-05T14:29:28.000Z</time>
      </trkpt>
      <trkpt lat="49.16293" lon="6.79571">
        <ele>237.64</ele>
        <time>2018-03-05T14:29:38.000Z</time>
      </trkpt>
      <trkpt lat="49.16295" lon="6.7955">
        <ele>239.53</ele>
        <time>2018-03-05T14:29:48.000Z</time>
      </trkpt>
      <trkpt lat="49.16295" lon="6.79529">
        <ele>240.2</ele>
        <time>2018-03-05T14:29:58.000Z</time>
      </trkpt>
      <trkpt lat="49.16298" lon="6.7951">
        <ele>239.69</ele>
        <time>2018-03-05T14:30:08.000Z</time>
      </trkpt>
      <trkpt lat="49.16302" lon="6.79488">
        <ele>240.77</ele>
        <time>2018-03-05T14:30:18.000Z</time>
      </trkpt>
      <trkpt lat="49.16304" lon="6.79472">
        <ele>237.77</ele>
        <time>2018-03-05T14:30:28.000Z</time>
      </trkpt>
      <trkpt lat="49.16307" lon="6.79447">
        <ele>239.61</ele>
        <time>2018-03-05T14:30:38.000Z</time>
      </trkpt>
      <trkpt lat="49.16312" lon="6.79424">
        <ele>240.8</ele>
        <time>2018-03-05T14:30:48.000Z</time>
      </trkpt>
      <trkpt lat="49.16318" lon="6.79405">
        <ele>245.09</ele>
        <time>2018-03-05T14:30:58.000Z</time>
      </trkpt>
      <trkpt lat="49.16323" lon="6.79383">
        <ele>245.78</ele>
        <time>2018-03-05T14:31:08.000Z</time>
      </trkpt>
      <trkpt lat="49.16331" lon="6.79364">
        <ele>244.98</ele>
        <time>2018-03-05T14:31:18.000Z</time>
      </trkpt>
      <trkpt lat="49.16338" lon="6.79345">
        <ele>243.34</ele>
        <time>2018-03-05T14:31:28.000Z</time>
      </trkpt>
      <trkpt lat="49.16345" lon="6.79325">
        <ele>243.24</ele>
        <time>2018-03-05T14:31:38.000Z</time>
      </trkpt>
      <trkpt lat="49.16354" lon="6.79306">
        <ele>244.74</ele>
        <time>2018-03-05T14:31:48.000Z</time>
      </trkpt>
      <trkpt lat="49.16362" lon="6.79286">
        <ele>246.48</ele>
        <time>2018-03-05T14:31:58.000Z</time>
      </trkpt>
      <trkpt lat="49.16369" lon="6.79272">
        <ele>244.75</ele>
        <time>2018-03-05T14:32:08.000Z</time>
      </trkpt>
      <trkpt lat="49.16376" lon="6.79255">
        <ele>244.62</ele>
        <time>2018-03-05T14:32:18.000Z</time>
      </trkpt>
      <trkpt lat="49.16386" lon="6.79239">
        <ele>247.79</ele>
        <time>2018-03-05T14:32:28.000Z</time>
      </trkpt>
      <trkpt lat="49.16394" lon="6.79227">
        <ele>247.02</ele>
        <time>2018-03-05T14:32:38.000Z</time>
      </trkpt>
      <trkpt lat="49.16403" lon="6.79218">
        <ele>245.58</ele>
        <time>2018-03-05T14:32:48.000Z</time>
      </trkpt>
      <trkpt lat="49.16415" lon="6.79203">
        <ele>247.11</ele>
        <time>2018-03-05T14:32:58.000Z</time>
      </trkpt>
      <trkpt lat="49.16427" lon="6.79188">
        <ele>250.34</ele>
        <time>2018-03-05T14:33:08.000Z</time>
      </trkpt>
      <trkpt lat="49.16439" lon="6.79174">
        <ele>252.14</ele>
        <time>2018-03-05T14:33:18.000Z</time>
      </trkpt>
      <trkpt lat="49.16452" lon="6.79162">
        <ele>251.79</ele>
        <time>2018-03-05T14:33:28.000Z</time>
      </trkpt>
      <trkpt lat="49.16465" lon="6.79148">
        <ele>253.74</ele>
        <time>2018-03-05T14:33:38.000Z</time>
      </trkpt>
      <trkpt lat="49.16475" lon="6.79137">
        <ele>250.79</ele>
        <time>2018-03-05T14:33:48.000Z</time>
      </trkpt>
      <trkpt lat="49.16485" lon="6.79128">
        <ele>250.36</ele>
        <time>2018-03-05T14:33:58.000Z</time>
      </trkpt>
      <trkpt lat="49.16495" lon="6.7912">
        <ele>251.59</ele>
        <time>2018-03-05T14:34:08.000Z</time>
      </trkpt>
      <trkpt lat="49.1651" lon="6.7911">
        <ele>255.78</ele>
        <time>2018-03-05T14:34:18.000Z</time>
      </trkpt>
      <trkpt lat="49.16522" lon="6.79102">
        <ele>255.43</ele>
        <time>2018-03-05T14:34:28.000Z</time>
      </trkpt>
      <trkpt lat="49.16533" lon="6.79088">
        <ele>256.33</ele>
        <time>2018-03-05T14:34:38.000Z</time>
      </trkpt>
      <trkpt lat="49.16538" lon="6.79076">
        <ele>257.37</ele>
        <time>2018-03-05T14:34:48.000Z</time>
      </trkpt>
      <trkpt lat="49.16538" lon="6.79068">
        <ele>256.81</ele>
        <time>2018-03-05T14:34:58.000Z</time>
      </trkpt>
      <trkpt lat="49.16539" lon="6.79069">
        <ele>256.46</ele>
        <time>2018-03-05T14:36:24.000Z</time>
      </trkpt>
      <trkpt lat="49.16541" lon="6.79066">
        <ele>257.64</ele>
        <time>2018-03-05T14:36:34.000Z</time>
      </trkpt>
      <trkpt lat="49.16544" lon="6.79066">
        <ele>258.54</ele>
        <time>2018-03-05T14:36:44.000Z</time>
      </trkpt>
      <trkpt lat="49.16548" lon="6.79072">
        <ele>257.99</ele>
        <time>2018-03-05T14:36:54.000Z</time>
      </trkpt>
      <trkpt lat="49.16554" lon="6.7907">
        <ele>258.74</ele>
        <time>2018-03-05T14:37:04.000Z</time>
      </trkpt>
      <trkpt lat="49.16558" lon="6.79065">
        <ele>257.11</ele>
        <time>2018-03-05T14:37:14.000Z</time>
      </trkpt>
      <trkpt lat="49.16558" lon="6.79062">
        <ele>254.66</ele>
        <time>2018-03-05T14:37:24.000Z</time>
      </trkpt>
      <trkpt lat="49.16566" lon="6.79051">
        <ele>254.58</ele>
        <time>2018-03-05T14:37:34.000Z</time>
      </trkpt>
      <trkpt lat="49.16577" lon="6.79042">
        <ele>252.96</ele>
        <time>2018-03-05T14:37:44.000Z</time>
      </trkpt>
      <trkpt lat="49.16587" lon="6.79031">
        <ele>251.82</ele>
        <time>2018-03-05T14:37:54.000Z</time>
      </trkpt>
      <trkpt lat="49.16596" lon="6.79016">
        <ele>251.54</ele>
        <time>2018-03-05T14:38:04.000Z</time>
      </trkpt>
      <trkpt lat="49.16604" lon="6.79">
        <ele>252.51</ele>
        <time>2018-03-05T14:38:14.000Z</time>
      </trkpt>
      <trkpt lat="49.16608" lon="6.78981">
        <ele>253.54</ele>
        <time>2018-03-05T14:38:24.000Z</time>
      </trkpt>
      <trkpt lat="49.16613" lon="6.78963">
        <ele>256.89</ele>
        <time>2018-03-05T14:38:34.000Z</time>
      </trkpt>
      <trkpt lat="49.16617" lon="6.78942">
        <ele>256.51</ele>
        <time>2018-03-05T14:38:44.000Z</time>
      </trkpt>
      <trkpt lat="49.16625" lon="6.78923">
        <ele>251.33</ele>
        <time>2018-03-05T14:38:54.000Z</time>
      </trkpt>
      <trkpt lat="49.16633" lon="6.78905">
        <ele>250.48</ele>
        <time>2018-03-05T14:39:04.000Z</time>
      </trkpt>
      <trkpt lat="49.16639" lon="6.78885">
        <ele>246.57</ele>
        <time>2018-03-05T14:39:14.000Z</time>
      </trkpt>
      <trkpt lat="49.16644" lon="6.78867">
        <ele>242.96</ele>
        <time>2018-03-05T14:39:24.000Z</time>
      </trkpt>
      <trkpt lat="49.16646" lon="6.78844">
        <ele>243.76</ele>
        <time>2018-03-05T14:39:34.000Z</time>
      </trkpt>
      <trkpt lat="49.16649" lon="6.78826">
        <ele>245.88</ele>
        <time>2018-03-05T14:39:44.000Z</time>
      </trkpt>
      <trkpt lat="49.16653" lon="6.78808">
        <ele>243.41</ele>
        <time>2018-03-05T14:39:54.000Z</time>
      </trkpt>
      <trkpt lat="49.16661" lon="6.78783">
        <ele>245.63</ele>
        <time>2018-03-05T14:40:04.000Z</time>
      </trkpt>
      <trkpt lat="49.16665" lon="6.78769">
        <ele>244.89</ele>
        <time>2018-03-05T14:40:14.000Z</time>
      </trkpt>
      <trkpt lat="49.16665" lon="6.78766">
        <ele>244.74</ele>
        <time>2018-03-05T14:40:24.000Z</time>
      </trkpt>
      <trkpt lat="49.16669" lon="6.78749">
        <ele>246.2</ele>
        <time>2018-03-05T14:40:34.000Z</time>
      </trkpt>
      <trkpt lat="49.16676" lon="6.78733">
        <ele>244.48</ele>
        <time>2018-03-05T14:40:44.000Z</time>
      </trkpt>
      <trkpt lat="49.16682" lon="6.78716">
        <ele>241.06</ele>
        <time>2018-03-05T14:40:54.000Z</time>
      </trkpt>
      <trkpt lat="49.16689" lon="6.78698">
        <ele>238.9</ele>
        <time>2018-03-05T14:41:04.000Z</time>
      </trkpt>
      <trkpt lat="49.16695" lon="6.78681">
        <ele>239.45</ele>
        <time>2018-03-05T14:41:14.000Z</time>
      </trkpt>
      <trkpt lat="49.16706" lon="6.78665">
        <ele>240.22</ele>
        <time>2018-03-05T14:41:24.000Z</time>
      </trkpt>
      <trkpt lat="49.16716" lon="6.78654">
        <ele>239.66</ele>
        <time>2018-03-05T14:41:34.000Z</time>
      </trkpt>
      <trkpt lat="49.16725" lon="6.78638">
        <ele>237.84</ele>
        <time>2018-03-05T14:41:44.000Z</time>
      </trkpt>
      <trkpt lat="49.16734" lon="6.7862">
        <ele>237.78</ele>
        <time>2018-03-05T14:41:54.000Z</time>
      </trkpt>
      <trkpt lat="49.16743" lon="6.78602">
        <ele>235.83</ele>
        <time>2018-03-05T14:42:04.000Z</time>
      </trkpt>
      <trkpt lat="49.16751" lon="6.78586">
        <ele>231.4</ele>
        <time>2018-03-05T14:42:14.000Z</time>
      </trkpt>
      <trkpt lat="49.16758" lon="6.78568">
        <ele>231.57</ele>
        <time>2018-03-05T14:42:24.000Z</time>
      </trkpt>
      <trkpt lat="49.16766" lon="6.7855">
        <ele>229.96</ele>
        <time>2018-03-05T14:42:34.000Z</time>
      </trkpt>
      <trkpt lat="49.16773" lon="6.78532">
        <ele>230.34</ele>
        <time>2018-03-05T14:42:44.000Z</time>
      </trkpt>
      <trkpt lat="49.16777" lon="6.78515">
        <ele>229.03</ele>
        <time>2018-03-05T14:42:54.000Z</time>
      </trkpt>
      <trkpt lat="49.16785" lon="6.78494">
        <ele>229.32</ele>
        <time>2018-03-05T14:43:04.000Z</time>
      </trkpt>
      <trkpt lat="49.1679" lon="6.78473">
        <ele>228.51</ele>
        <time>2018-03-05T14:43:14.000Z</time>
      </trkpt>
      <trkpt lat="49.16795" lon="6.78449">
        <ele>230.13</ele>
        <time>2018-03-05T14:43:24.000Z</time>
      </trkpt>
      <trkpt lat="49.16801" lon="6.78429">
        <ele>228.85</ele>
        <time>2018-03-05T14:43:34.000Z</time>
      </trkpt>
      <trkpt lat="49.16804" lon="6.78406">
        <ele>228.55</ele>
        <time>2018-03-05T14:43:44.000Z</time>
      </trkpt>
      <trkpt lat="49.16807" lon="6.78384">
        <ele>226.33</ele>
        <time>2018-03-05T14:43:54.000Z</time>
      </trkpt>
      <trkpt lat="49.16809" lon="6.78359">
        <ele>228.7</ele>
        <time>2018-03-05T14:44:04.000Z</time>
      </trkpt>
      <trkpt lat="49.16812" lon="6.78339">
        <ele>227.02</ele>
        <time>2018-03-05T14:44:14.000Z</time>
      </trkpt>
      <trkpt lat="49.16815" lon="6.78321">
        <ele>224.64</ele>
        <time>2018-03-05T14:44:24.000Z</time>
      </trkpt>
      <trkpt lat="49.16819" lon="6.78303">
        <ele>224.12</ele>
        <time>2018-03-05T14:44:34.000Z</time>
      </trkpt>
      <trkpt lat="49.16822" lon="6.78284">
        <ele>223.18</ele>
        <time>2018-03-05T14:44:44.000Z</time>
      </trkpt>
      <trkpt lat="49.16825" lon="6.78262">
        <ele>222.51</ele>
        <time>2018-03-05T14:44:54.000Z</time>
      </trkpt>
      <trkpt lat="49.16828" lon="6.78237">
        <ele>224.47</ele>
        <time>2018-03-05T14:45:04.000Z</time>
      </trkpt>
      <trkpt lat="49.1683" lon="6.78218">
        <ele>220.24</ele>
        <time>2018-03-05T14:45:14.000Z</time>
      </trkpt>
      <trkpt lat="49.16832" lon="6.78197">
        <ele>218.75</ele>
        <time>2018-03-05T14:45:24.000Z</time>
      </trkpt>
      <trkpt lat="49.16836" lon="6.78178">
        <ele>217.24</ele>
        <time>2018-03-05T14:45:34.000Z</time>
      </trkpt>
      <trkpt lat="49.16839" lon="6.78156">
        <ele>217.24</ele>
        <time>2018-03-05T14:45:44.000Z</time>
      </trkpt>
      <trkpt lat="49.16845" lon="6.78134">
        <ele>216.64</ele>
        <time>2018-03-05T14:45:54.000Z</time>
      </trkpt>
      <trkpt lat="49.16846" lon="6.7811">
        <ele>215.52</ele>
        <time>2018-03-05T14:46:04.000Z</time>
      </trkpt>
      <trkpt lat="49.16847" lon="6.78089">
        <ele>214.07</ele>
        <time>2018-03-05T14:46:14.000Z</time>
      </trkpt>
      <trkpt lat="49.16851" lon="6.78069">
        <ele>212.5</ele>
        <time>2018-03-05T14:46:24.000Z</time>
      </trkpt>
      <trkpt lat="49.16854" lon="6.7805">
        <ele>209.98</ele>
        <time>2018-03-05T14:46:34.000Z</time>
      </trkpt>
      <trkpt lat="49.16853" lon="6.78032">
        <ele>207.26</ele>
        <time>2018-03-05T14:46:44.000Z</time>
      </trkpt>
      <trkpt lat="49.16849" lon="6.78018">
        <ele>207</ele>
        <time>2018-03-05T14:46:54.000Z</time>
      </trkpt>
      <trkpt lat="49.16848" lon="6.78001">
        <ele>207.16</ele>
        <time>2018-03-05T14:47:04.000Z</time>
      </trkpt>
      <trkpt lat="49.1684" lon="6.77976">
        <ele>209.3</ele>
        <time>2018-03-05T14:47:14.000Z</time>
      </trkpt>
      <trkpt lat="49.16838" lon="6.77955">
        <ele>209.33</ele>
        <time>2018-03-05T14:47:24.000Z</time>
      </trkpt>
      <trkpt lat="49.16835" lon="6.77936">
        <ele>207.04</ele>
        <time>2018-03-05T14:47:34.000Z</time>
      </trkpt>
      <trkpt lat="49.16831" lon="6.77916">
        <ele>205.64</ele>
        <time>2018-03-05T14:47:44.000Z</time>
      </trkpt>
      <trkpt lat="49.1683" lon="6.77896">
        <ele>203.24</ele>
        <time>2018-03-05T14:47:54.000Z</time>
      </trkpt>
      <trkpt lat="49.16824" lon="6.77876">
        <ele>202.81</ele>
        <time>2018-03-05T14:48:04.000Z</time>
      </trkpt>
      <trkpt lat="49.16816" lon="6.77854">
        <ele>202.8</ele>
        <time>2018-03-05T14:48:14.000Z</time>
      </trkpt>
      <trkpt lat="49.16814" lon="6.77835">
        <ele>199.78</ele>
        <time>2018-03-05T14:48:24.000Z</time>
      </trkpt>
      <trkpt lat="49.16811" lon="6.77815">
        <ele>198.04</ele>
        <time>2018-03-05T14:48:34.000Z</time>
      </trkpt>
      <trkpt lat="49.16807" lon="6.77794">
        <ele>194.53</ele>
        <time>2018-03-05T14:48:44.000Z</time>
      </trkpt>
      <trkpt lat="49.16801" lon="6.77775">
        <ele>191.92</ele>
        <time>2018-03-05T14:48:54.000Z</time>
      </trkpt>
      <trkpt lat="49.16799" lon="6.77757">
        <ele>189.08</ele>
        <time>2018-03-05T14:49:04.000Z</time>
      </trkpt>
      <trkpt lat="49.16793" lon="6.77736">
        <ele>188.79</ele>
        <time>2018-03-05T14:49:14.000Z</time>
      </trkpt>
      <trkpt lat="49.16787" lon="6.77721">
        <ele>188.1</ele>
        <time>2018-03-05T14:49:24.000Z</time>
      </trkpt>
      <trkpt lat="49.16781" lon="6.777">
        <ele>186.27</ele>
        <time>2018-03-05T14:49:34.000Z</time>
      </trkpt>
      <trkpt lat="49.16776" lon="6.77678">
        <ele>185.36</ele>
        <time>2018-03-05T14:49:44.000Z</time>
      </trkpt>
      <trkpt lat="49.16775" lon="6.77658">
        <ele>183.78</ele>
        <time>2018-03-05T14:49:54.000Z</time>
      </trkpt>
      <trkpt lat="49.16774" lon="6.77638">
        <ele>181.29</ele>
        <time>2018-03-05T14:50:04.000Z</time>
      </trkpt>
      <trkpt lat="49.16771" lon="6.77616">
        <ele>180.15</ele>
        <time>2018-03-05T14:50:14.000Z</time>
      </trkpt>
      <trkpt lat="49.16769" lon="6.77592">
        <ele>178.43</ele>
        <time>2018-03-05T14:50:24.000Z</time>
      </trkpt>
      <trkpt lat="49.16768" lon="6.77572">
        <ele>175.89</ele>
        <time>2018-03-05T14:50:34.000Z</time>
      </trkpt>
      <trkpt lat="49.16768" lon="6.77552">
        <ele>174.39</ele>
        <time>2018-03-05T14:50:44.000Z</time>
      </trkpt>
      <trkpt lat="49.16758" lon="6.77539">
        <ele>177.12</ele>
        <time>2018-03-05T14:50:54.000Z</time>
      </trkpt>
      <trkpt lat="49.16748" lon="6.77534">
        <ele>176.51</ele>
        <time>2018-03-05T14:51:04.000Z</time>
      </trkpt>
      <trkpt lat="49.16735" lon="6.77526">
        <ele>171.98</ele>
        <time>2018-03-05T14:51:14.000Z</time>
      </trkpt>
      <trkpt lat="49.16721" lon="6.77518">
        <ele>171.27</ele>
        <time>2018-03-05T14:51:24.000Z</time>
      </trkpt>
      <trkpt lat="49.16706" lon="6.77503">
        <ele>177.81</ele>
        <time>2018-03-05T14:51:34.000Z</time>
      </trkpt>
      <trkpt lat="49.167" lon="6.77492">
        <ele>180.96</ele>
        <time>2018-03-05T14:51:44.000Z</time>
      </trkpt>
      <trkpt lat="49.16697" lon="6.77486">
        <ele>181.46</ele>
        <time>2018-03-05T14:51:54.000Z</time>
      </trkpt>
      <trkpt lat="49.16693" lon="6.77473">
        <ele>176.72</ele>
        <time>2018-03-05T14:52:04.000Z</time>
      </trkpt>
      <trkpt lat="49.16689" lon="6.77453">
        <ele>173.31</ele>
        <time>2018-03-05T14:52:14.000Z</time>
      </trkpt>
      <trkpt lat="49.1668" lon="6.77438">
        <ele>175.91</ele>
        <time>2018-03-05T14:52:24.000Z</time>
      </trkpt>
      <trkpt lat="49.16675" lon="6.77421">
        <ele>177.45</ele>
        <time>2018-03-05T14:52:34.000Z</time>
      </trkpt>
      <trkpt lat="49.1667" lon="6.77398">
        <ele>178.77</ele>
        <time>2018-03-05T14:52:44.000Z</time>
      </trkpt>
      <trkpt lat="49.16666" lon="6.77379">
        <ele>177.16</ele>
        <time>2018-03-05T14:52:54.000Z</time>
      </trkpt>
      <trkpt lat="49.16664" lon="6.77365">
        <ele>172.63</ele>
        <time>2018-03-05T14:53:04.000Z</time>
      </trkpt>
      <trkpt lat="49.16662" lon="6.77347">
        <ele>169.7</ele>
        <time>2018-03-05T14:53:14.000Z</time>
      </trkpt>
      <trkpt lat="49.16658" lon="6.77331">
        <ele>167.3</ele>
        <time>2018-03-05T14:53:24.000Z</time>
      </trkpt>
      <trkpt lat="49.1666" lon="6.77311">
        <ele>168.54</ele>
        <time>2018-03-05T14:53:34.000Z</time>
      </trkpt>
      <trkpt lat="49.1666" lon="6.77307">
        <ele>172.46</ele>
        <time>2018-03-05T14:53:44.000Z</time>
      </trkpt>
      <trkpt lat="49.16656" lon="6.77294">
        <ele>179.51</ele>
        <time>2018-03-05T14:53:55.000Z</time>
      </trkpt>
      <trkpt lat="49.16655" lon="6.77293">
        <ele>182.89</ele>
        <time>2018-03-05T14:54:06.000Z</time>
      </trkpt>
      <trkpt lat="49.16655" lon="6.77279">
        <ele>179.74</ele>
        <time>2018-03-05T14:54:16.000Z</time>
      </trkpt>
      <trkpt lat="49.16655" lon="6.77263">
        <ele>176.84</ele>
        <time>2018-03-05T14:54:26.000Z</time>
      </trkpt>
      <trkpt lat="49.16653" lon="6.77245">
        <ele>177.71</ele>
        <time>2018-03-05T14:54:36.000Z</time>
      </trkpt>
      <trkpt lat="49.1665" lon="6.77226">
        <ele>183.88</ele>
        <time>2018-03-05T14:54:46.000Z</time>
      </trkpt>
      <trkpt lat="49.16649" lon="6.77205">
        <ele>186.66</ele>
        <time>2018-03-05T14:54:56.000Z</time>
      </trkpt>
      <trkpt lat="49.16647" lon="6.77188">
        <ele>186.53</ele>
        <time>2018-03-05T14:55:06.000Z</time>
      </trkpt>
      <trkpt lat="49.16647" lon="6.77171">
        <ele>185.44</ele>
        <time>2018-03-05T14:55:16.000Z</time>
      </trkpt>
      <trkpt lat="49.16649" lon="6.77154">
        <ele>182.03</ele>
        <time>2018-03-05T14:55:26.000Z</time>
      </trkpt>
      <trkpt lat="49.16648" lon="6.77134">
        <ele>183.83</ele>
        <time>2018-03-05T14:55:36.000Z</time>
      </trkpt>
      <trkpt lat="49.16646" lon="6.77112">
        <ele>183.4</ele>
        <time>2018-03-05T14:55:46.000Z</time>
      </trkpt>
      <trkpt lat="49.1664" lon="6.77089">
        <ele>184.18</ele>
        <time>2018-03-05T14:55:56.000Z</time>
      </trkpt>
      <trkpt lat="49.16636" lon="6.77071">
        <ele>183.75</ele>
        <time>2018-03-05T14:56:06.000Z</time>
      </trkpt>
      <trkpt lat="49.16634" lon="6.77055">
        <ele>181.32</ele>
        <time>2018-03-05T14:56:16.000Z</time>
      </trkpt>
      <trkpt lat="49.16631" lon="6.77035">
        <ele>179.9</ele>
        <time>2018-03-05T14:56:26.000Z</time>
      </trkpt>
      <trkpt lat="49.16628" lon="6.77016">
        <ele>180.8</ele>
        <time>2018-03-05T14:56:36.000Z</time>
      </trkpt>
      <trkpt lat="49.16624" lon="6.76997">
        <ele>182.28</ele>
        <time>2018-03-05T14:56:46.000Z</time>
      </trkpt>
      <trkpt lat="49.16621" lon="6.76981">
        <ele>183.6</ele>
        <time>2018-03-05T14:56:56.000Z</time>
      </trkpt>
      <trkpt lat="49.16616" lon="6.76962">
        <ele>186.1</ele>
        <time>2018-03-05T14:57:06.000Z</time>
      </trkpt>
      <trkpt lat="49.16614" lon="6.76946">
        <ele>187.94</ele>
        <time>2018-03-05T14:57:16.000Z</time>
      </trkpt>
      <trkpt lat="49.16611" lon="6.76927">
        <ele>187.6</ele>
        <time>2018-03-05T14:57:26.000Z</time>
      </trkpt>
      <trkpt lat="49.1661" lon="6.7691">
        <ele>187.01</ele>
        <time>2018-03-05T14:57:36.000Z</time>
      </trkpt>
      <trkpt lat="49.16607" lon="6.76891">
        <ele>186.83</ele>
        <time>2018-03-05T14:57:46.000Z</time>
      </trkpt>
      <trkpt lat="49.16605" lon="6.76871">
        <ele>186.19</ele>
        <time>2018-03-05T14:57:56.000Z</time>
      </trkpt>
      <trkpt lat="49.16601" lon="6.7685">
        <ele>187.41</ele>
        <time>2018-03-05T14:58:06.000Z</time>
      </trkpt>
      <trkpt lat="49.16599" lon="6.76832">
        <ele>186.89</ele>
        <time>2018-03-05T14:58:16.000Z</time>
      </trkpt>
      <trkpt lat="49.16596" lon="6.76811">
        <ele>186.12</ele>
        <time>2018-03-05T14:58:26.000Z</time>
      </trkpt>
      <trkpt lat="49.16592" lon="6.76791">
        <ele>186.04</ele>
        <time>2018-03-05T14:58:36.000Z</time>
      </trkpt>
      <trkpt lat="49.16586" lon="6.7677">
        <ele>188.68</ele>
        <time>2018-03-05T14:58:46.000Z</time>
      </trkpt>
      <trkpt lat="49.16585" lon="6.76751">
        <ele>184.64</ele>
        <time>2018-03-05T14:58:56.000Z</time>
      </trkpt>
      <trkpt lat="49.1658" lon="6.76729">
        <ele>186.43</ele>
        <time>2018-03-05T14:59:06.000Z</time>
      </trkpt>
      <trkpt lat="49.16572" lon="6.7671">
        <ele>191.54</ele>
        <time>2018-03-05T14:59:16.000Z</time>
      </trkpt>
      <trkpt lat="49.1657" lon="6.76693">
        <ele>191.45</ele>
        <time>2018-03-05T14:59:26.000Z</time>
      </trkpt>
      <trkpt lat="49.16564" lon="6.7667">
        <ele>192.37</ele>
        <time>2018-03-05T14:59:36.000Z</time>
      </trkpt>
      <trkpt lat="49.16558" lon="6.76656">
        <ele>198.14</ele>
        <time>2018-03-05T14:59:46.000Z</time>
      </trkpt>
      <trkpt lat="49.16556" lon="6.76652">
        <ele>198.47</ele>
        <time>2018-03-05T15:00:04.000Z</time>
      </trkpt>
      <trkpt lat="49.16557" lon="6.76645">
        <ele>195.9</ele>
        <time>2018-03-05T15:00:14.000Z</time>
      </trkpt>
      <trkpt lat="49.16554" lon="6.76636">
        <ele>199.48</ele>
        <time>2018-03-05T15:00:24.000Z</time>
      </trkpt>
      <trkpt lat="49.16552" lon="6.76625">
        <ele>199.42</ele>
        <time>2018-03-05T15:00:34.000Z</time>
      </trkpt>
      <trkpt lat="49.16547" lon="6.76611">
        <ele>198.65</ele>
        <time>2018-03-05T15:00:44.000Z</time>
      </trkpt>
      <trkpt lat="49.16542" lon="6.76595">
        <ele>198.99</ele>
        <time>2018-03-05T15:00:54.000Z</time>
      </trkpt>
      <trkpt lat="49.1654" lon="6.76578">
        <ele>196.16</ele>
        <time>2018-03-05T15:01:04.000Z</time>
      </trkpt>
      <trkpt lat="49.16538" lon="6.76561">
        <ele>194.57</ele>
        <time>2018-03-05T15:01:14.000Z</time>
      </trkpt>
      <trkpt lat="49.16534" lon="6.76545">
        <ele>195.6</ele>
        <time>2018-03-05T15:01:24.000Z</time>
      </trkpt>
      <trkpt lat="49.16532" lon="6.76528">
        <ele>194.12</ele>
        <time>2018-03-05T15:01:34.000Z</time>
      </trkpt>
      <trkpt lat="49.16531" lon="6.76512">
        <ele>191.4</ele>
        <time>2018-03-05T15:01:44.000Z</time>
      </trkpt>
      <trkpt lat="49.16526" lon="6.76494">
        <ele>191.65</ele>
        <time>2018-03-05T15:01:54.000Z</time>
      </trkpt>
      <trkpt lat="49.16523" lon="6.76475">
        <ele>188.51</ele>
        <time>2018-03-05T15:02:04.000Z</time>
      </trkpt>
      <trkpt lat="49.16513" lon="6.76452">
        <ele>195.74</ele>
        <time>2018-03-05T15:02:14.000Z</time>
      </trkpt>
      <trkpt lat="49.16508" lon="6.76432">
        <ele>198.95</ele>
        <time>2018-03-05T15:02:24.000Z</time>
      </trkpt>
      <trkpt lat="49.16504" lon="6.76414">
        <ele>199.94</ele>
        <time>2018-03-05T15:02:34.000Z</time>
      </trkpt>
      <trkpt lat="49.16501" lon="6.76395">
        <ele>199.34</ele>
        <time>2018-03-05T15:02:44.000Z</time>
      </trkpt>
      <trkpt lat="49.16497" lon="6.76375">
        <ele>199.54</ele>
        <time>2018-03-05T15:02:54.000Z</time>
      </trkpt>
      <trkpt lat="49.16494" lon="6.76354">
        <ele>200.32</ele>
        <time>2018-03-05T15:03:04.000Z</time>
      </trkpt>
      <trkpt lat="49.16492" lon="6.76333">
        <ele>198.43</ele>
        <time>2018-03-05T15:03:14.000Z</time>
      </trkpt>
      <trkpt lat="49.16492" lon="6.76316">
        <ele>198.34</ele>
        <time>2018-03-05T15:03:24.000Z</time>
      </trkpt>
      <trkpt lat="49.1649" lon="6.76293">
        <ele>199.78</ele>
        <time>2018-03-05T15:03:34.000Z</time>
      </trkpt>
      <trkpt lat="49.16486" lon="6.76271">
        <ele>199.23</ele>
        <time>2018-03-05T15:03:44.000Z</time>
      </trkpt>
      <trkpt lat="49.16484" lon="6.7625">
        <ele>200.35</ele>
        <time>2018-03-05T15:03:54.000Z</time>
      </trkpt>
      <trkpt lat="49.1648" lon="6.76229">
        <ele>199.23</ele>
        <time>2018-03-05T15:04:04.000Z</time>
      </trkpt>
      <trkpt lat="49.16478" lon="6.76209">
        <ele>200.03</ele>
        <time>2018-03-05T15:04:14.000Z</time>
      </trkpt>
      <trkpt lat="49.16477" lon="6.76187">
        <ele>201.91</ele>
        <time>2018-03-05T15:04:24.000Z</time>
      </trkpt>
      <trkpt lat="49.16472" lon="6.76166">
        <ele>202.3</ele>
        <time>2018-03-05T15:04:34.000Z</time>
      </trkpt>
      <trkpt lat="49.16469" lon="6.76148">
        <ele>200.78</ele>
        <time>2018-03-05T15:04:44.000Z</time>
      </trkpt>
      <trkpt lat="49.16469" lon="6.76128">
        <ele>200.19</ele>
        <time>2018-03-05T15:04:54.000Z</time>
      </trkpt>
      <trkpt lat="49.16469" lon="6.76105">
        <ele>202.31</ele>
        <time>2018-03-05T15:05:04.000Z</time>
      </trkpt>
      <trkpt lat="49.16471" lon="6.76084">
        <ele>198.12</ele>
        <time>2018-03-05T15:05:14.000Z</time>
      </trkpt>
      <trkpt lat="49.16473" lon="6.76065">
        <ele>197.79</ele>
        <time>2018-03-05T15:05:24.000Z</time>
      </trkpt>
      <trkpt lat="49.16473" lon="6.76043">
        <ele>198.65</ele>
        <time>2018-03-05T15:05:34.000Z</time>
      </trkpt>
      <trkpt lat="49.16472" lon="6.76021">
        <ele>200.08</ele>
        <time>2018-03-05T15:05:44.000Z</time>
      </trkpt>
      <trkpt lat="49.16475" lon="6.76">
        <ele>200.07</ele>
        <time>2018-03-05T15:05:54.000Z</time>
      </trkpt>
      <trkpt lat="49.16476" lon="6.7598">
        <ele>198.76</ele>
        <time>2018-03-05T15:06:04.000Z</time>
      </trkpt>
      <trkpt lat="49.16479" lon="6.75959">
        <ele>199.1</ele>
        <time>2018-03-05T15:06:14.000Z</time>
      </trkpt>
      <trkpt lat="49.1648" lon="6.75941">
        <ele>200.48</ele>
        <time>2018-03-05T15:06:24.000Z</time>
      </trkpt>
      <trkpt lat="49.16482" lon="6.75924">
        <ele>198.01</ele>
        <time>2018-03-05T15:06:34.000Z</time>
      </trkpt>
      <trkpt lat="49.16483" lon="6.75904">
        <ele>196.15</ele>
        <time>2018-03-05T15:06:44.000Z</time>
      </trkpt>
      <trkpt lat="49.16485" lon="6.75882">
        <ele>196.49</ele>
        <time>2018-03-05T15:06:54.000Z</time>
      </trkpt>
      <trkpt lat="49.16492" lon="6.75865">
        <ele>192.31</ele>
        <time>2018-03-05T15:07:04.000Z</time>
      </trkpt>
      <trkpt lat="49.16495" lon="6.75844">
        <ele>191.34</ele>
        <time>2018-03-05T15:07:14.000Z</time>
      </trkpt>
      <trkpt lat="49.165" lon="6.75828">
        <ele>195.85</ele>
        <time>2018-03-05T15:07:24.000Z</time>
      </trkpt>
      <trkpt lat="49.16505" lon="6.75805">
        <ele>204.73</ele>
        <time>2018-03-05T15:07:34.000Z</time>
      </trkpt>
      <trkpt lat="49.16509" lon="6.75788">
        <ele>208.41</ele>
        <time>2018-03-05T15:07:44.000Z</time>
      </trkpt>
      <trkpt lat="49.16517" lon="6.75769">
        <ele>208.71</ele>
        <time>2018-03-05T15:07:54.000Z</time>
      </trkpt>
      <trkpt lat="49.16524" lon="6.7575">
        <ele>208.86</ele>
        <time>2018-03-05T15:08:04.000Z</time>
      </trkpt>
      <trkpt lat="49.16531" lon="6.7573">
        <ele>206.97</ele>
        <time>2018-03-05T15:08:14.000Z</time>
      </trkpt>
      <trkpt lat="49.16535" lon="6.7571">
        <ele>204.48</ele>
        <time>2018-03-05T15:08:24.000Z</time>
      </trkpt>
      <trkpt lat="49.1654" lon="6.75694">
        <ele>202.87</ele>
        <time>2018-03-05T15:08:34.000Z</time>
      </trkpt>
      <trkpt lat="49.16545" lon="6.75678">
        <ele>200.21</ele>
        <time>2018-03-05T15:08:44.000Z</time>
      </trkpt>
      <trkpt lat="49.16551" lon="6.75667">
        <ele>209.69</ele>
        <time>2018-03-05T15:08:54.000Z</time>
      </trkpt>
      <trkpt lat="49.16545" lon="6.75654">
        <ele>216.14</ele>
        <time>2018-03-05T15:09:06.000Z</time>
      </trkpt>
      <trkpt lat="49.16551" lon="6.75649">
        <ele>212.64</ele>
        <time>2018-03-05T15:09:16.000Z</time>
      </trkpt>
      <trkpt lat="49.16559" lon="6.75636">
        <ele>207.26</ele>
        <time>2018-03-05T15:09:26.000Z</time>
      </trkpt>
      <trkpt lat="49.16567" lon="6.75619">
        <ele>207.4</ele>
        <time>2018-03-05T15:09:36.000Z</time>
      </trkpt>
      <trkpt lat="49.16572" lon="6.75602">
        <ele>211.98</ele>
        <time>2018-03-05T15:09:46.000Z</time>
      </trkpt>
      <trkpt lat="49.16578" lon="6.75584">
        <ele>216.99</ele>
        <time>2018-03-05T15:09:56.000Z</time>
      </trkpt>
      <trkpt lat="49.16584" lon="6.75565">
        <ele>219.18</ele>
        <time>2018-03-05T15:10:06.000Z</time>
      </trkpt>
      <trkpt lat="49.16591" lon="6.75549">
        <ele>217.8</ele>
        <time>2018-03-05T15:10:16.000Z</time>
      </trkpt>
      <trkpt lat="49.16599" lon="6.75531">
        <ele>217.33</ele>
        <time>2018-03-05T15:10:26.000Z</time>
      </trkpt>
      <trkpt lat="49.16604" lon="6.7551">
        <ele>216.11</ele>
        <time>2018-03-05T15:10:36.000Z</time>
      </trkpt>
      <trkpt lat="49.16608" lon="6.75493">
        <ele>218.52</ele>
        <time>2018-03-05T15:10:46.000Z</time>
      </trkpt>
      <trkpt lat="49.16611" lon="6.75473">
        <ele>218.1</ele>
        <time>2018-03-05T15:10:56.000Z</time>
      </trkpt>
      <trkpt lat="49.16616" lon="6.75456">
        <ele>219.55</ele>
        <time>2018-03-05T15:11:06.000Z</time>
      </trkpt>
      <trkpt lat="49.16621" lon="6.7544">
        <ele>218.49</ele>
        <time>2018-03-05T15:11:16.000Z</time>
      </trkpt>
      <trkpt lat="49.16625" lon="6.75422">
        <ele>220.49</ele>
        <time>2018-03-05T15:11:26.000Z</time>
      </trkpt>
      <trkpt lat="49.1663" lon="6.75403">
        <ele>217.56</ele>
        <time>2018-03-05T15:11:36.000Z</time>
      </trkpt>
      <trkpt lat="49.16634" lon="6.75382">
        <ele>216.25</ele>
        <time>2018-03-05T15:11:46.000Z</time>
      </trkpt>
      <trkpt lat="49.16637" lon="6.75362">
        <ele>217.12</ele>
        <time>2018-03-05T15:11:56.000Z</time>
      </trkpt>
      <trkpt lat="49.16641" lon="6.75344">
        <ele>218.4</ele>
        <time>2018-03-05T15:12:06.000Z</time>
      </trkpt>
      <trkpt lat="49.16645" lon="6.75322">
        <ele>219.61</ele>
        <time>2018-03-05T15:12:16.000Z</time>
      </trkpt>
      <trkpt lat="49.16648" lon="6.753">
        <ele>219.3</ele>
        <time>2018-03-05T15:12:26.000Z</time>
      </trkpt>
      <trkpt lat="49.1665" lon="6.75278">
        <ele>221.39</ele>
        <time>2018-03-05T15:12:36.000Z</time>
      </trkpt>
      <trkpt lat="49.16653" lon="6.75255">
        <ele>221.18</ele>
        <time>2018-03-05T15:12:46.000Z</time>
      </trkpt>
      <trkpt lat="49.16655" lon="6.75235">
        <ele>219.86</ele>
        <time>2018-03-05T15:12:56.000Z</time>
      </trkpt>
      <trkpt lat="49.16656" lon="6.75216">
        <ele>219.68</ele>
        <time>2018-03-05T15:13:06.000Z</time>
      </trkpt>
      <trkpt lat="49.16656" lon="6.75198">
        <ele>221.14</ele>
        <time>2018-03-05T15:13:16.000Z</time>
      </trkpt>
      <trkpt lat="49.16657" lon="6.75174">
        <ele>223.91</ele>
        <time>2018-03-05T15:13:26.000Z</time>
      </trkpt>
      <trkpt lat="49.16661" lon="6.75156">
        <ele>220.73</ele>
        <time>2018-03-05T15:13:36.000Z</time>
      </trkpt>
      <trkpt lat="49.16664" lon="6.75137">
        <ele>221.54</ele>
        <time>2018-03-05T15:13:46.000Z</time>
      </trkpt>
      <trkpt lat="49.16663" lon="6.75117">
        <ele>222.93</ele>
        <time>2018-03-05T15:13:56.000Z</time>
      </trkpt>
      <trkpt lat="49.16665" lon="6.75099">
        <ele>223.54</ele>
        <time>2018-03-05T15:14:06.000Z</time>
      </trkpt>
      <trkpt lat="49.16666" lon="6.75074">
        <ele>225.23</ele>
        <time>2018-03-05T15:14:16.000Z</time>
      </trkpt>
      <trkpt lat="49.16668" lon="6.75055">
        <ele>226.49</ele>
        <time>2018-03-05T15:14:26.000Z</time>
      </trkpt>
      <trkpt lat="49.16666" lon="6.75035">
        <ele>227.76</ele>
        <time>2018-03-05T15:14:36.000Z</time>
      </trkpt>
      <trkpt lat="49.16665" lon="6.75017">
        <ele>225.2</ele>
        <time>2018-03-05T15:14:46.000Z</time>
      </trkpt>
      <trkpt lat="49.16664" lon="6.74998">
        <ele>222.75</ele>
        <time>2018-03-05T15:14:56.000Z</time>
      </trkpt>
      <trkpt lat="49.16663" lon="6.7498">
        <ele>221.2</ele>
        <time>2018-03-05T15:15:06.000Z</time>
      </trkpt>
      <trkpt lat="49.16661" lon="6.74961">
        <ele>219.11</ele>
        <time>2018-03-05T15:15:16.000Z</time>
      </trkpt>
      <trkpt lat="49.16652" lon="6.74941">
        <ele>222.41</ele>
        <time>2018-03-05T15:15:26.000Z</time>
      </trkpt>
      <trkpt lat="49.16636" lon="6.74927">
        <ele>233.03</ele>
        <time>2018-03-05T15:15:36.000Z</time>
      </trkpt>
      <trkpt lat="49.16632" lon="6.74923">
        <ele>234.69</ele>
        <time>2018-03-05T15:15:46.000Z</time>
      </trkpt>
      <trkpt lat="49.1663" lon="6.74924">
        <ele>238.7</ele>
        <time>2018-03-05T15:16:16.000Z</time>
      </trkpt>
      <trkpt lat="49.16634" lon="6.74918">
        <ele>237.19</ele>
        <time>2018-03-05T15:16:26.000Z</time>
      </trkpt>
      <trkpt lat="49.16636" lon="6.74906">
        <ele>231.28</ele>
        <time>2018-03-05T15:16:36.000Z</time>
      </trkpt>
      <trkpt lat="49.16635" lon="6.74889">
        <ele>228.72</ele>
        <time>2018-03-05T15:16:46.000Z</time>
      </trkpt>
      <trkpt lat="49.16631" lon="6.74876">
        <ele>228.04</ele>
        <time>2018-03-05T15:16:56.000Z</time>
      </trkpt>
      <trkpt lat="49.16625" lon="6.74861">
        <ele>228.92</ele>
        <time>2018-03-05T15:17:06.000Z</time>
      </trkpt>
      <trkpt lat="49.16617" lon="6.74845">
        <ele>230.78</ele>
        <time>2018-03-05T15:17:16.000Z</time>
      </trkpt>
      <trkpt lat="49.16611" lon="6.74833">
        <ele>239.56</ele>
        <time>2018-03-05T15:17:24.000Z</time>
      </trkpt>
    </trkseg>
  </trk>
</gpx>